Observation data for Tarzan on 07/03/2020      Previous  Date  Next       Current Mesonet Observations  Soil Data  Daily Summary Page  Observations in Plain Language
KTA1 030500Z 16006KT 28/14 A3003 RMK A01 T02830138  RH  041%=      5-min Rain = 0
KTA1 030501Z 16009KT 28/14 A3003 RMK A01 T02830138  RH  041%=      5-min Rain = 0
KTA1 030502Z 15009KT 28/14 A3003 RMK A01 T02820138  RH  041%=      5-min Rain = 0
KTA1 030503Z 16008KT 28/14 A3003 RMK A01 T02830138  RH  041%=      5-min Rain = 0
KTA1 030504Z 16008KT 28/14 A3003 RMK A01 T02830138  RH  041%=      5-min Rain = 0
KTA1 030505Z 15007KT 28/14 A3003 RMK A01 T02830138  RH  041%=      5-min Rain = 0
KTA1 030506Z 16007KT 28/14 A3003 RMK A01 T02830139  RH  041%=      5-min Rain = 0
KTA1 030507Z 16008KT 28/14 A3003 RMK A01 T02830139  RH  041%=      5-min Rain = 0
KTA1 030508Z 16009KT 28/14 A3003 RMK A01 T02830139  RH  041%=      5-min Rain = 0
KTA1 030509Z 16008KT 28/14 A3004 RMK A01 T02830139  RH  041%=      5-min Rain = 0
KTA1 030510Z 16008KT 28/14 A3004 RMK A01 T02830139  RH  041%=      5-min Rain = 0
KTA1 030511Z 16009KT 28/14 A3004 RMK A01 T02830139  RH  041%=      5-min Rain = 0
KTA1 030512Z 16008KT 28/14 A3004 RMK A01 T02840139  RH  041%=      5-min Rain = 0
KTA1 030513Z 16009KT 28/14 A3004 RMK A01 T02840140  RH  041%=      5-min Rain = 0
KTA1 030514Z 16009KT 28/14 A3004 RMK A01 T02840140  RH  041%=      5-min Rain = 0
KTA1 030515Z 16010KT 29/14 A3004 RMK A01 T02850140  RH  041%=      5-min Rain = 0
KTA1 030516Z 16010KT 29/14 A3004 RMK A01 T02850140  RH  041%=      5-min Rain = 0
KTA1 030517Z 16009KT 29/14 A3004 RMK A01 T02850140  RH  041%=      5-min Rain = 0
KTA1 030518Z 16008KT 29/14 A3004 RMK A01 T02850140  RH  041%=      5-min Rain = 0
KTA1 030519Z 16008KT 29/14 A3004 RMK A01 T02850140  RH  041%=      5-min Rain = 0
KTA1 030520Z 16007KT 29/14 A3004 RMK A01 T02850141  RH  041%=      5-min Rain = 0
KTA1 030521Z 16006KT 29/14 A3004 RMK A01 T02850141  RH  041%=      5-min Rain = 0
KTA1 030522Z 17009KT 28/14 A3004 RMK A01 T02840141  RH  041%=      5-min Rain = 0
KTA1 030523Z 16008KT 28/14 A3004 RMK A01 T02840141  RH  041%=      5-min Rain = 0
KTA1 030524Z 16009KT 28/14 A3004 RMK A01 T02840141  RH  041%=      5-min Rain = 0
KTA1 030525Z 16008KT 28/14 A3004 RMK A01 T02840141  RH  041%=      5-min Rain = 0
KTA1 030526Z 16007KT 28/14 A3004 RMK A01 T02840141  RH  041%=      5-min Rain = 0
KTA1 030527Z 17007KT 29/14 A3004 RMK A01 T02850141  RH  041%=      5-min Rain = 0
KTA1 030528Z 16007KT 29/14 A3004 RMK A01 T02850141  RH  041%=      5-min Rain = 0
KTA1 030529Z 16009KT 29/14 A3004 RMK A01 T02850141  RH  041%=      5-min Rain = 0
KTA1 030530Z 16009KT 28/14 A3004 RMK A01 T02840141  RH  041%=      5-min Rain = 0
KTA1 030531Z 15009KT 29/14 A3004 RMK A01 T02850141  RH  041%=      5-min Rain = 0
KTA1 030532Z 15009KT 29/14 A3004 RMK A01 T02850141  RH  041%=      5-min Rain = 0
KTA1 030533Z 15009KT 29/14 A3004 RMK A01 T02850141  RH  041%=      5-min Rain = 0
KTA1 030534Z 15007KT 29/14 A3004 RMK A01 T02850141  RH  041%=      5-min Rain = 0
KTA1 030535Z 16008KT 29/14 A3004 RMK A01 T02850141  RH  041%=      5-min Rain = 0
KTA1 030536Z 16007KT 29/14 A3004 RMK A01 T02850141  RH  041%=      5-min Rain = 0
KTA1 030537Z 16006KT 29/14 A3004 RMK A01 T02850142  RH  042%=      5-min Rain = 0
KTA1 030538Z 16006KT 28/14 A3004 RMK A01 T02840142  RH  042%=      5-min Rain = 0
KTA1 030539Z 16005KT 28/14 A3004 RMK A01 T02840142  RH  042%=      5-min Rain = 0
KTA1 030540Z 17006KT 28/14 A3004 RMK A01 T02830142  RH  042%=      5-min Rain = 0
KTA1 030541Z 17007KT 28/14 A3004 RMK A01 T02830142  RH  042%=      5-min Rain = 0
KTA1 030542Z 16006KT 28/14 A3004 RMK A01 T02830142  RH  042%=      5-min Rain = 0
KTA1 030543Z 17006KT 28/14 A3004 RMK A01 T02830142  RH  042%=      5-min Rain = 0
KTA1 030544Z 17007KT 28/14 A3004 RMK A01 T02840142  RH  042%=      5-min Rain = 0
KTA1 030545Z 17005KT 28/14 A3004 RMK A01 T02840142  RH  042%=      5-min Rain = 0
KTA1 030546Z 16006KT 28/14 A3004 RMK A01 T02840142  RH  042%=      5-min Rain = 0
KTA1 030547Z 17006KT 28/14 A3004 RMK A01 T02840142  RH  042%=      5-min Rain = 0
KTA1 030548Z 16005KT 28/14 A3004 RMK A01 T02840142  RH  042%=      5-min Rain = 0
KTA1 030549Z 17006KT 28/14 A3004 RMK A01 T02840143  RH  042%=      5-min Rain = 0
KTA1 030550Z 16006KT 28/14 A3004 RMK A01 T02840143  RH  042%=      5-min Rain = 0
KTA1 030551Z 16007KT 28/14 A3004 RMK A01 T02830143  RH  042%=      5-min Rain = 0
KTA1 030552Z 16006KT 28/14 A3004 RMK A01 T02830143  RH  042%=      5-min Rain = 0
KTA1 030553Z 16007KT 28/14 A3004 RMK A01 T02830143  RH  042%=      5-min Rain = 0
KTA1 030554Z 16006KT 28/14 A3004 RMK A01 T02830143  RH  042%=      5-min Rain = 0
KTA1 030555Z 16007KT 28/14 A3004 RMK A01 T02830143  RH  042%=      5-min Rain = 0
KTA1 030556Z 16007KT 28/14 A3004 RMK A01 T02830143  RH  042%=      5-min Rain = 0
KTA1 030557Z 16006KT 28/14 A3004 RMK A01 T02830144  RH  042%=      5-min Rain = 0
KTA1 030558Z 16006KT 28/14 A3004 RMK A01 T02830144  RH  043%=      5-min Rain = 0
KTA1 030559Z 16007KT 28/14 A3004 RMK A01 T02830144  RH  043%=      5-min Rain = 0
KTA1 030600Z 16007KT 28/14 A3004 RMK A01 T02830144  RH  043%=      5-min Rain = 0
KTA1 030601Z 16006KT 28/14 A3004 RMK A01 T02830144  RH  043%=      5-min Rain = 0
KTA1 030602Z 16006KT 28/14 A3004 RMK A01 T02830144  RH  043%=      5-min Rain = 0
KTA1 030603Z 16006KT 28/15 A3004 RMK A01 T02830145  RH  043%=      5-min Rain = 0
KTA1 030604Z 16006KT 28/14 A3004 RMK A01 T02820144  RH  043%=      5-min Rain = 0
KTA1 030605Z 16006KT 28/14 A3004 RMK A01 T02820144  RH  043%=      5-min Rain = 0
KTA1 030606Z 16006KT 28/14 A3004 RMK A01 T02820144  RH  043%=      5-min Rain = 0
KTA1 030607Z 17005KT 28/14 A3004 RMK A01 T02820144  RH  043%=      5-min Rain = 0
KTA1 030608Z 17006KT 28/15 A3004 RMK A01 T02820145  RH  043%=      5-min Rain = 0
KTA1 030609Z 16006KT 28/15 A3004 RMK A01 T02820145  RH  043%=      5-min Rain = 0
KTA1 030610Z 17006KT 28/15 A3004 RMK A01 T02820145  RH  043%=      5-min Rain = 0
KTA1 030611Z 17006KT 28/15 A3004 RMK A01 T02830145  RH  043%=      5-min Rain = 0
KTA1 030612Z 17007KT 28/15 A3004 RMK A01 T02830145  RH  043%=      5-min Rain = 0
KTA1 030613Z 17006KT 28/15 A3004 RMK A01 T02830145  RH  043%=      5-min Rain = 0
KTA1 030614Z 17007KT 28/15 A3004 RMK A01 T02830145  RH  043%=      5-min Rain = 0
KTA1 030615Z 17009KT 28/15 A3004 RMK A01 T02830145  RH  043%=      5-min Rain = 0
KTA1 030616Z 17007KT 28/15 A3004 RMK A01 T02840146  RH  043%=      5-min Rain = 0
KTA1 030617Z 17006KT 28/15 A3004 RMK A01 T02840146  RH  043%=      5-min Rain = 0
KTA1 030618Z 17007KT 28/15 A3004 RMK A01 T02840146  RH  043%=      5-min Rain = 0
KTA1 030619Z 17008KT 28/15 A3004 RMK A01 T02840146  RH  043%=      5-min Rain = 0
KTA1 030620Z 17007KT 28/15 A3004 RMK A01 T02840146  RH  043%=      5-min Rain = 0
KTA1 030621Z 17007KT 28/15 A3004 RMK A01 T02840146  RH  043%=      5-min Rain = 0
KTA1 030622Z 16007KT 28/15 A3004 RMK A01 T02840147  RH  043%=      5-min Rain = 0
KTA1 030623Z 16008KT 28/15 A3004 RMK A01 T02840147  RH  043%=      5-min Rain = 0
KTA1 030624Z 16007KT 28/15 A3004 RMK A01 T02840147  RH  043%=      5-min Rain = 0
KTA1 030625Z 15006KT 28/15 A3004 RMK A01 T02840147  RH  043%=      5-min Rain = 0
KTA1 030626Z 15006KT 28/15 A3004 RMK A01 T02840147  RH  043%=      5-min Rain = 0
KTA1 030627Z 15006KT 28/15 A3004 RMK A01 T02840148  RH  043%=      5-min Rain = 0
KTA1 030628Z 14006KT 28/15 A3004 RMK A01 T02840147  RH  043%=      5-min Rain = 0
KTA1 030629Z 14005KT 28/15 A3004 RMK A01 T02830147  RH  043%=      5-min Rain = 0
KTA1 030630Z 14004KT 28/15 A3004 RMK A01 T02830147  RH  044%=      5-min Rain = 0
KTA1 030631Z 15004KT 28/15 A3004 RMK A01 T02820147  RH  044%=      5-min Rain = 0
KTA1 030632Z 15005KT 28/15 A3004 RMK A01 T02810147  RH  044%=      5-min Rain = 0
KTA1 030633Z 15004KT 28/15 A3004 RMK A01 T02810147  RH  044%=      5-min Rain = 0
KTA1 030634Z 15005KT 28/15 A3004 RMK A01 T02800147  RH  044%=      5-min Rain = 0
KTA1 030635Z 15004KT 28/15 A3004 RMK A01 T02800147  RH  044%=      5-min Rain = 0
KTA1 030636Z 15005KT 28/15 A3004 RMK A01 T02790147  RH  044%=      5-min Rain = 0
KTA1 030637Z 15005KT 28/15 A3004 RMK A01 T02790147  RH  045%=      5-min Rain = 0
KTA1 030638Z 15004KT 28/15 A3004 RMK A01 T02790147  RH  045%=      5-min Rain = 0
KTA1 030639Z 14004KT 28/15 A3004 RMK A01 T02790147  RH  045%=      5-min Rain = 0
KTA1 030640Z 14005KT 28/15 A3004 RMK A01 T02790147  RH  045%=      5-min Rain = 0
KTA1 030641Z 14004KT 28/15 A3004 RMK A01 T02780147  RH  045%=      5-min Rain = 0
KTA1 030642Z 14004KT 28/15 A3004 RMK A01 T02780147  RH  045%=      5-min Rain = 0
KTA1 030643Z 14005KT 28/15 A3004 RMK A01 T02780147  RH  045%=      5-min Rain = 0
KTA1 030644Z 15005KT 28/15 A3004 RMK A01 T02770147  RH  045%=      5-min Rain = 0
KTA1 030645Z 15005KT 28/15 A3004 RMK A01 T02770147  RH  045%=      5-min Rain = 0
KTA1 030646Z 14005KT 28/15 A3004 RMK A01 T02770147  RH  045%=      5-min Rain = 0
KTA1 030647Z 14005KT 28/15 A3004 RMK A01 T02770147  RH  045%=      5-min Rain = 0
KTA1 030648Z 15005KT 28/15 A3004 RMK A01 T02780147  RH  045%=      5-min Rain = 0
KTA1 030649Z 15005KT 28/15 A3004 RMK A01 T02780148  RH  045%=      5-min Rain = 0
KTA1 030650Z 14005KT 28/15 A3004 RMK A01 T02780148  RH  045%=      5-min Rain = 0
KTA1 030651Z 14005KT 28/15 A3004 RMK A01 T02780147  RH  045%=      5-min Rain = 0
KTA1 030652Z 14005KT 28/15 A3004 RMK A01 T02780147  RH  045%=      5-min Rain = 0
KTA1 030653Z 14006KT 28/15 A3004 RMK A01 T02780148  RH  045%=      5-min Rain = 0
KTA1 030654Z 14005KT 28/15 A3004 RMK A01 T02770147  RH  045%=      5-min Rain = 0
KTA1 030655Z 14006KT 28/15 A3004 RMK A01 T02770147  RH  045%=      5-min Rain = 0
KTA1 030656Z 14006KT 28/15 A3004 RMK A01 T02770147  RH  045%=      5-min Rain = 0
KTA1 030657Z 15006KT 28/15 A3004 RMK A01 T02770147  RH  045%=      5-min Rain = 0
KTA1 030658Z 15006KT 28/15 A3003 RMK A01 T02770147  RH  045%=      5-min Rain = 0
KTA1 030659Z 15007KT 28/15 A3003 RMK A01 T02780148  RH  045%=      5-min Rain = 0
KTA1 030700Z 15006KT 28/15 A3003 RMK A01 T02780148  RH  045%=      5-min Rain = 0
KTA1 030701Z 15005KT 28/15 A3003 RMK A01 T02780148  RH  045%=      5-min Rain = 0
KTA1 030702Z 15005KT 28/15 A3003 RMK A01 T02770148  RH  045%=      5-min Rain = 0
KTA1 030703Z 15005KT 28/15 A3003 RMK A01 T02780148  RH  045%=      5-min Rain = 0
KTA1 030704Z 15005KT 28/15 A3003 RMK A01 T02780148  RH  045%=      5-min Rain = 0
KTA1 030705Z 15005KT 28/15 A3003 RMK A01 T02780148  RH  045%=      5-min Rain = 0
KTA1 030706Z 15005KT 28/15 A3003 RMK A01 T02770148  RH  045%=      5-min Rain = 0
KTA1 030707Z 15005KT 28/15 A3003 RMK A01 T02770148  RH  045%=      5-min Rain = 0
KTA1 030708Z 15005KT 28/15 A3003 RMK A01 T02760148  RH  045%=      5-min Rain = 0
KTA1 030709Z 16005KT 28/15 A3003 RMK A01 T02760148  RH  046%=      5-min Rain = 0
KTA1 030710Z 16005KT 28/15 A3003 RMK A01 T02760148  RH  046%=      5-min Rain = 0
KTA1 030711Z 16005KT 28/15 A3003 RMK A01 T02750148  RH  046%=      5-min Rain = 0
KTA1 030712Z 15005KT 28/15 A3003 RMK A01 T02750148  RH  046%=      5-min Rain = 0
KTA1 030713Z 16005KT 28/15 A3003 RMK A01 T02750148  RH  046%=      5-min Rain = 0
KTA1 030714Z 16005KT 28/15 A3003 RMK A01 T02750148  RH  046%=      5-min Rain = 0
KTA1 030715Z 16005KT 28/15 A3003 RMK A01 T02750148  RH  046%=      5-min Rain = 0
KTA1 030716Z 16005KT 27/15 A3003 RMK A01 T02740148  RH  046%=      5-min Rain = 0
KTA1 030717Z 16006KT 27/15 A3003 RMK A01 T02740148  RH  046%=      5-min Rain = 0
KTA1 030718Z 16006KT 27/15 A3002 RMK A01 T02740148  RH  046%=      5-min Rain = 0
KTA1 030719Z 16005KT 27/15 A3002 RMK A01 T02740148  RH  046%=      5-min Rain = 0
KTA1 030720Z 16005KT 27/15 A3002 RMK A01 T02740148  RH  046%=      5-min Rain = 0
KTA1 030721Z 16005KT 27/15 A3002 RMK A01 T02730147  RH  046%=      5-min Rain = 0
KTA1 030722Z 16005KT 27/15 A3002 RMK A01 T02730148  RH  046%=      5-min Rain = 0
KTA1 030723Z 16005KT 27/15 A3002 RMK A01 T02720148  RH  046%=      5-min Rain = 0
KTA1 030724Z 16005KT 27/15 A3002 RMK A01 T02720147  RH  046%=      5-min Rain = 0
KTA1 030725Z 16005KT 27/15 A3002 RMK A01 T02710147  RH  047%=      5-min Rain = 0
KTA1 030726Z 15004KT 27/15 A3002 RMK A01 T02710147  RH  047%=      5-min Rain = 0
KTA1 030727Z 15004KT 27/15 A3002 RMK A01 T02700147  RH  047%=      5-min Rain = 0
KTA1 030728Z 15004KT 27/15 A3002 RMK A01 T02700147  RH  047%=      5-min Rain = 0
KTA1 030729Z 15003KT 27/15 A3002 RMK A01 T02690147  RH  047%=      5-min Rain = 0
KTA1 030730Z 15004KT 27/15 A3002 RMK A01 T02680147  RH  047%=      5-min Rain = 0
KTA1 030731Z 15003KT 27/15 A3002 RMK A01 T02670147  RH  048%=      5-min Rain = 0
KTA1 030732Z 15003KT 27/15 A3002 RMK A01 T02660147  RH  048%=      5-min Rain = 0
KTA1 030733Z 15004KT 27/15 A3002 RMK A01 T02660146  RH  048%=      5-min Rain = 0
KTA1 030734Z 15003KT 27/15 A3002 RMK A01 T02650146  RH  048%=      5-min Rain = 0
KTA1 030735Z 15004KT 27/15 A3002 RMK A01 T02650146  RH  048%=      5-min Rain = 0
KTA1 030736Z 15004KT 26/15 A3002 RMK A01 T02640146  RH  048%=      5-min Rain = 0
KTA1 030737Z 15005KT 26/15 A3002 RMK A01 T02640146  RH  048%=      5-min Rain = 0
KTA1 030738Z 15005KT 26/15 A3002 RMK A01 T02630146  RH  048%=      5-min Rain = 0
KTA1 030739Z 15005KT 26/15 A3002 RMK A01 T02630146  RH  048%=      5-min Rain = 0
KTA1 030740Z 15005KT 26/15 A3001 RMK A01 T02620145  RH  048%=      5-min Rain = 0
KTA1 030741Z 15005KT 26/15 A3002 RMK A01 T02630146  RH  048%=      5-min Rain = 0
KTA1 030742Z 15005KT 26/15 A3002 RMK A01 T02620145  RH  049%=      5-min Rain = 0
KTA1 030743Z 15005KT 26/14 A3002 RMK A01 T02610144  RH  049%=      5-min Rain = 0
KTA1 030744Z 15004KT 26/14 A3002 RMK A01 T02610144  RH  049%=      5-min Rain = 0
KTA1 030745Z 14004KT 26/14 A3002 RMK A01 T02610144  RH  049%=      5-min Rain = 0
KTA1 030746Z 14004KT 26/14 A3002 RMK A01 T02600144  RH  049%=      5-min Rain = 0
KTA1 030747Z 14004KT 26/14 A3002 RMK A01 T02600143  RH  049%=      5-min Rain = 0
KTA1 030748Z 14004KT 26/14 A3002 RMK A01 T02590143  RH  049%=      5-min Rain = 0
KTA1 030749Z 14004KT 26/14 A3002 RMK A01 T02590144  RH  049%=      5-min Rain = 0
KTA1 030750Z 15004KT 26/14 A3002 RMK A01 T02590144  RH  049%=      5-min Rain = 0
KTA1 030751Z 15004KT 26/14 A3002 RMK A01 T02580144  RH  049%=      5-min Rain = 0
KTA1 030752Z 15004KT 26/14 A3002 RMK A01 T02580144  RH  049%=      5-min Rain = 0
KTA1 030753Z 16005KT 26/14 A3002 RMK A01 T02570144  RH  050%=      5-min Rain = 0
KTA1 030754Z 16006KT 26/14 A3002 RMK A01 T02560144  RH  050%=      5-min Rain = 0
KTA1 030755Z 15006KT 26/15 A3002 RMK A01 T02560145  RH  050%=      5-min Rain = 0
KTA1 030756Z 15006KT 26/15 A3002 RMK A01 T02560145  RH  050%=      5-min Rain = 0
KTA1 030757Z 15006KT 26/15 A3001 RMK A01 T02560145  RH  050%=      5-min Rain = 0
KTA1 030758Z 15006KT 26/15 A3001 RMK A01 T02560145  RH  050%=      5-min Rain = 0
KTA1 030759Z 15006KT 26/15 A3001 RMK A01 T02560145  RH  050%=      5-min Rain = 0
KTA1 030800Z 15006KT 26/15 A3001 RMK A01 T02560145  RH  050%=      5-min Rain = 0
KTA1 030801Z 16006KT 26/15 A3001 RMK A01 T02560145  RH  050%=      5-min Rain = 0
KTA1 030802Z 16006KT 26/15 A3001 RMK A01 T02570145  RH  050%=      5-min Rain = 0
KTA1 030803Z 16006KT 26/15 A3001 RMK A01 T02570146  RH  050%=      5-min Rain = 0
KTA1 030804Z 16007KT 26/15 A3001 RMK A01 T02580146  RH  050%=      5-min Rain = 0
KTA1 030805Z 17006KT 26/15 A3001 RMK A01 T02590146  RH  050%=      5-min Rain = 0
KTA1 030806Z 17006KT 26/15 A3001 RMK A01 T02610147  RH  049%=      5-min Rain = 0
KTA1 030807Z 17007KT 26/15 A3001 RMK A01 T02620147  RH  049%=      5-min Rain = 0
KTA1 030808Z 18007KT 26/15 A3001 RMK A01 T02640148  RH  049%=      5-min Rain = 0
KTA1 030809Z 18005KT 27/15 A3001 RMK A01 T02650147  RH  048%=      5-min Rain = 0
KTA1 030810Z 17006KT 27/15 A3001 RMK A01 T02650147  RH  048%=      5-min Rain = 0
KTA1 030811Z 18006KT 27/15 A3001 RMK A01 T02650147  RH  048%=      5-min Rain = 0
KTA1 030812Z 17006KT 27/15 A3001 RMK A01 T02650147  RH  048%=      5-min Rain = 0
KTA1 030813Z 17006KT 26/15 A3001 RMK A01 T02640147  RH  049%=      5-min Rain = 0
KTA1 030814Z 17007KT 26/15 A3001 RMK A01 T02640147  RH  049%=      5-min Rain = 0
KTA1 030815Z 17006KT 26/15 A3001 RMK A01 T02630147  RH  049%=      5-min Rain = 0
KTA1 030816Z 17006KT 26/15 A3001 RMK A01 T02640147  RH  049%=      5-min Rain = 0
KTA1 030817Z 17005KT 27/15 A3001 RMK A01 T02650148  RH  049%=      5-min Rain = 0
KTA1 030818Z 17005KT 26/15 A3001 RMK A01 T02640147  RH  049%=      5-min Rain = 0
KTA1 030819Z 17005KT 26/15 A3001 RMK A01 T02640147  RH  049%=      5-min Rain = 0
KTA1 030820Z 16006KT 26/15 A3001 RMK A01 T02640147  RH  049%=      5-min Rain = 0
KTA1 030821Z 16006KT 26/15 A3001 RMK A01 T02630147  RH  049%=      5-min Rain = 0
KTA1 030822Z 16007KT 26/15 A3001 RMK A01 T02630148  RH  049%=      5-min Rain = 0
KTA1 030823Z 16007KT 26/15 A3001 RMK A01 T02630148  RH  049%=      5-min Rain = 0
KTA1 030824Z 16007KT 26/15 A3001 RMK A01 T02630148  RH  049%=      5-min Rain = 0
KTA1 030825Z 16007KT 26/15 A3001 RMK A01 T02630148  RH  049%=      5-min Rain = 0
KTA1 030826Z 16006KT 26/15 A3001 RMK A01 T02640148  RH  049%=      5-min Rain = 0
KTA1 030827Z 16006KT 26/15 A3001 RMK A01 T02640148  RH  049%=      5-min Rain = 0
KTA1 030828Z 16007KT 26/15 A3001 RMK A01 T02640149  RH  049%=      5-min Rain = 0
KTA1 030829Z 16006KT 26/15 A3001 RMK A01 T02640148  RH  049%=      5-min Rain = 0
KTA1 030830Z 16006KT 26/15 A3001 RMK A01 T02630148  RH  049%=      5-min Rain = 0
KTA1 030831Z 15006KT 26/15 A3001 RMK A01 T02630148  RH  049%=      5-min Rain = 0
KTA1 030832Z 16006KT 26/15 A3001 RMK A01 T02630148  RH  049%=      5-min Rain = 0
KTA1 030833Z 15006KT 26/15 A3001 RMK A01 T02620148  RH  049%=      5-min Rain = 0
KTA1 030834Z 15005KT 26/15 A3001 RMK A01 T02620148  RH  049%=      5-min Rain = 0
KTA1 030835Z 15004KT 26/15 A3001 RMK A01 T02610148  RH  050%=      5-min Rain = 0
KTA1 030836Z 15004KT 26/15 A3001 RMK A01 T02600147  RH  050%=      5-min Rain = 0
KTA1 030837Z 15005KT 26/15 A3001 RMK A01 T02590146  RH  050%=      5-min Rain = 0
KTA1 030838Z 15006KT 26/15 A3001 RMK A01 T02570146  RH  050%=      5-min Rain = 0
KTA1 030839Z 15005KT 26/15 A3001 RMK A01 T02550145  RH  051%=      5-min Rain = 0
KTA1 030840Z 16006KT 25/15 A3001 RMK A01 T02540145  RH  051%=      5-min Rain = 0
KTA1 030841Z 15006KT 25/15 A3001 RMK A01 T02530145  RH  051%=      5-min Rain = 0
KTA1 030842Z 15006KT 25/15 A3001 RMK A01 T02510145  RH  052%=      5-min Rain = 0
KTA1 030843Z 15006KT 25/15 A3001 RMK A01 T02510145  RH  052%=      5-min Rain = 0
KTA1 030844Z 15006KT 25/15 A3001 RMK A01 T02510145  RH  052%=      5-min Rain = 0
KTA1 030845Z 15005KT 25/15 A3001 RMK A01 T02510145  RH  052%=      5-min Rain = 0
KTA1 030846Z 15005KT 25/15 A3001 RMK A01 T02510145  RH  052%=      5-min Rain = 0
KTA1 030847Z 16005KT 25/15 A3001 RMK A01 T02510145  RH  052%=      5-min Rain = 0
KTA1 030848Z 15005KT 25/15 A3001 RMK A01 T02510145  RH  052%=      5-min Rain = 0
KTA1 030849Z 15005KT 25/15 A3001 RMK A01 T02500145  RH  052%=      5-min Rain = 0
KTA1 030850Z 15005KT 25/15 A3001 RMK A01 T02500145  RH  052%=      5-min Rain = 0
KTA1 030851Z 15005KT 25/15 A3001 RMK A01 T02500145  RH  052%=      5-min Rain = 0
KTA1 030852Z 15005KT 25/15 A3001 RMK A01 T02500145  RH  052%=      5-min Rain = 0
KTA1 030853Z 15005KT 25/15 A3001 RMK A01 T02490145  RH  052%=      5-min Rain = 0
KTA1 030854Z 15006KT 25/15 A3001 RMK A01 T02490145  RH  052%=      5-min Rain = 0
KTA1 030855Z 15005KT 25/15 A3001 RMK A01 T02490145  RH  052%=      5-min Rain = 0
KTA1 030856Z 15006KT 25/15 A3001 RMK A01 T02500145  RH  052%=      5-min Rain = 0
KTA1 030857Z 15005KT 25/15 A3001 RMK A01 T02500145  RH  052%=      5-min Rain = 0
KTA1 030858Z 16005KT 25/15 A3001 RMK A01 T02500145  RH  052%=      5-min Rain = 0
KTA1 030859Z 16005KT 25/15 A3001 RMK A01 T02510145  RH  052%=      5-min Rain = 0
KTA1 030900Z 16007KT 25/15 A3001 RMK A01 T02510145  RH  052%=      5-min Rain = 0
KTA1 030901Z 16007KT 25/15 A3001 RMK A01 T02510145  RH  052%=      5-min Rain = 0
KTA1 030902Z 17006KT 25/14 A3001 RMK A01 T02520144  RH  051%=      5-min Rain = 0
KTA1 030903Z 17006KT 25/14 A3001 RMK A01 T02520144  RH  051%=      5-min Rain = 0
KTA1 030904Z 17005KT 25/15 A3001 RMK A01 T02530145  RH  051%=      5-min Rain = 0
KTA1 030905Z 17005KT 25/15 A3001 RMK A01 T02530145  RH  051%=      5-min Rain = 0
KTA1 030906Z 17006KT 25/15 A3001 RMK A01 T02540145  RH  051%=      5-min Rain = 0
KTA1 030907Z 17005KT 25/15 A3001 RMK A01 T02540145  RH  051%=      5-min Rain = 0
KTA1 030908Z 17005KT 26/15 A3001 RMK A01 T02550145  RH  051%=      5-min Rain = 0
KTA1 030909Z 17006KT 26/15 A3001 RMK A01 T02550145  RH  051%=      5-min Rain = 0
KTA1 030910Z 17005KT 26/15 A3001 RMK A01 T02550145  RH  051%=      5-min Rain = 0
KTA1 030911Z 18005KT 25/15 A3001 RMK A01 T02540145  RH  051%=      5-min Rain = 0
KTA1 030912Z 17006KT 25/15 A3001 RMK A01 T02540145  RH  051%=      5-min Rain = 0
KTA1 030913Z 17006KT 25/15 A3001 RMK A01 T02530145  RH  051%=      5-min Rain = 0
KTA1 030914Z 17006KT 25/15 A3001 RMK A01 T02530145  RH  051%=      5-min Rain = 0
KTA1 030915Z 17006KT 25/15 A3001 RMK A01 T02520145  RH  051%=      5-min Rain = 0
KTA1 030916Z 17006KT 25/15 A3001 RMK A01 T02520145  RH  051%=      5-min Rain = 0
KTA1 030917Z 16005KT 25/15 A3001 RMK A01 T02520145  RH  052%=      5-min Rain = 0
KTA1 030918Z 16006KT 25/15 A3001 RMK A01 T02520145  RH  052%=      5-min Rain = 0
KTA1 030919Z 16006KT 25/15 A3001 RMK A01 T02510145  RH  052%=      5-min Rain = 0
KTA1 030920Z 15006KT 25/15 A3001 RMK A01 T02510145  RH  052%=      5-min Rain = 0
KTA1 030921Z 15006KT 25/15 A3001 RMK A01 T02510145  RH  052%=      5-min Rain = 0
KTA1 030922Z 14006KT 25/15 A3002 RMK A01 T02500145  RH  052%=      5-min Rain = 0
KTA1 030923Z 14006KT 25/14 A3002 RMK A01 T02500144  RH  052%=      5-min Rain = 0
KTA1 030924Z 13006KT 25/14 A3002 RMK A01 T02490144  RH  052%=      5-min Rain = 0
KTA1 030925Z 12007KT 25/14 A3002 RMK A01 T02480143  RH  052%=      5-min Rain = 0
KTA1 030926Z 12007KT 25/14 A3002 RMK A01 T02470143  RH  052%=      5-min Rain = 0
KTA1 030927Z 12007KT 25/14 A3002 RMK A01 T02450142  RH  053%=      5-min Rain = 0
KTA1 030928Z 12007KT 24/14 A3003 RMK A01 T02440143  RH  053%=      5-min Rain = 0
KTA1 030929Z 12007KT 24/14 A3003 RMK A01 T02440143  RH  053%=      5-min Rain = 0
KTA1 030930Z 12007KT 24/14 A3003 RMK A01 T02440143  RH  053%=      5-min Rain = 0
KTA1 030931Z 12007KT 24/14 A3003 RMK A01 T02440143  RH  053%=      5-min Rain = 0
KTA1 030932Z 13007KT 24/14 A3003 RMK A01 T02440143  RH  053%=      5-min Rain = 0
KTA1 030933Z 13006KT 24/14 A3003 RMK A01 T02440143  RH  053%=      5-min Rain = 0
KTA1 030934Z 13006KT 24/14 A3003 RMK A01 T02440144  RH  054%=      5-min Rain = 0
KTA1 030935Z 14005KT 24/14 A3002 RMK A01 T02440144  RH  054%=      5-min Rain = 0
KTA1 030936Z 15005KT 24/14 A3002 RMK A01 T02440144  RH  054%=      5-min Rain = 0
KTA1 030937Z 15005KT 24/14 A3002 RMK A01 T02440144  RH  054%=      5-min Rain = 0
KTA1 030938Z 16006KT 24/14 A3002 RMK A01 T02440144  RH  054%=      5-min Rain = 0
KTA1 030939Z 17006KT 24/14 A3002 RMK A01 T02440144  RH  054%=      5-min Rain = 0
KTA1 030940Z 17006KT 24/14 A3002 RMK A01 T02440144  RH  054%=      5-min Rain = 0
KTA1 030941Z 17006KT 25/14 A3002 RMK A01 T02450144  RH  053%=      5-min Rain = 0
KTA1 030942Z 17006KT 25/14 A3002 RMK A01 T02460144  RH  053%=      5-min Rain = 0
KTA1 030943Z 17006KT 25/15 A3002 RMK A01 T02470145  RH  053%=      5-min Rain = 0
KTA1 030944Z 17007KT 25/15 A3002 RMK A01 T02480145  RH  053%=      5-min Rain = 0
KTA1 030945Z 17006KT 25/15 A3002 RMK A01 T02500145  RH  052%=      5-min Rain = 0
KTA1 030946Z 17007KT 25/15 A3002 RMK A01 T02510146  RH  052%=      5-min Rain = 0
KTA1 030947Z 17006KT 25/15 A3002 RMK A01 T02520145  RH  052%=      5-min Rain = 0
KTA1 030948Z 16006KT 25/15 A3002 RMK A01 T02520145  RH  052%=      5-min Rain = 0
KTA1 030949Z 17006KT 25/15 A3002 RMK A01 T02520146  RH  052%=      5-min Rain = 0
KTA1 030950Z 16007KT 25/15 A3002 RMK A01 T02520146  RH  052%=      5-min Rain = 0
KTA1 030951Z 16006KT 25/15 A3002 RMK A01 T02520146  RH  052%=      5-min Rain = 0
KTA1 030952Z 16006KT 25/15 A3002 RMK A01 T02530147  RH  052%=      5-min Rain = 0
KTA1 030953Z 16007KT 25/15 A3002 RMK A01 T02530147  RH  052%=      5-min Rain = 0
KTA1 030954Z 15005KT 25/15 A3002 RMK A01 T02530147  RH  052%=      5-min Rain = 0
KTA1 030955Z 14005KT 25/15 A3002 RMK A01 T02530147  RH  052%=      5-min Rain = 0
KTA1 030956Z 14005KT 25/15 A3002 RMK A01 T02530147  RH  052%=      5-min Rain = 0
KTA1 030957Z 14006KT 25/15 A3002 RMK A01 T02520147  RH  052%=      5-min Rain = 0
KTA1 030958Z 14006KT 25/15 A3002 RMK A01 T02510146  RH  052%=      5-min Rain = 0
KTA1 030959Z 14005KT 25/15 A3002 RMK A01 T02500145  RH  052%=      5-min Rain = 0
KTA1 031000Z 14005KT 25/15 A3002 RMK A01 T02500146  RH  052%=      5-min Rain = 0
KTA1 031001Z 14005KT 25/15 A3002 RMK A01 T02490145  RH  053%=      5-min Rain = 0
KTA1 031002Z 14005KT 25/15 A3002 RMK A01 T02480145  RH  053%=      5-min Rain = 0
KTA1 031003Z 14005KT 25/15 A3002 RMK A01 T02470145  RH  053%=      5-min Rain = 0
KTA1 031004Z 13004KT 25/15 A3002 RMK A01 T02470145  RH  053%=      5-min Rain = 0
KTA1 031005Z 13004KT 25/15 A3002 RMK A01 T02470145  RH  053%=      5-min Rain = 0
KTA1 031006Z 13004KT 25/15 A3002 RMK A01 T02460146  RH  054%=      5-min Rain = 0
KTA1 031007Z 13005KT 25/15 A3002 RMK A01 T02460146  RH  054%=      5-min Rain = 0
KTA1 031008Z 13006KT 25/15 A3003 RMK A01 T02460147  RH  054%=      5-min Rain = 0
KTA1 031009Z 12006KT 25/15 A3003 RMK A01 T02460147  RH  054%=      5-min Rain = 0
KTA1 031010Z 11005KT 25/15 A3003 RMK A01 T02460146  RH  054%=      5-min Rain = 0
KTA1 031011Z 11006KT 25/15 A3003 RMK A01 T02460146  RH  054%=      5-min Rain = 0
KTA1 031012Z 11007KT 25/15 A3003 RMK A01 T02450146  RH  054%=      5-min Rain = 0
KTA1 031013Z 11007KT 25/15 A3003 RMK A01 T02450146  RH  054%=      5-min Rain = 0
KTA1 031014Z 10007KT 24/15 A3003 RMK A01 T02440146  RH  054%=      5-min Rain = 0
KTA1 031015Z 10007KT 24/15 A3003 RMK A01 T02440146  RH  054%=      5-min Rain = 0
KTA1 031016Z 10007KT 24/15 A3003 RMK A01 T02440145  RH  054%=      5-min Rain = 0
KTA1 031017Z 10007KT 25/15 A3003 RMK A01 T02450145  RH  054%=      5-min Rain = 0
KTA1 031018Z 11007KT 25/15 A3003 RMK A01 T02450145  RH  054%=      5-min Rain = 0
KTA1 031019Z 10006KT 25/15 A3003 RMK A01 T02460145  RH  053%=      5-min Rain = 0
KTA1 031020Z 11006KT 25/15 A3003 RMK A01 T02460145  RH  053%=      5-min Rain = 0
KTA1 031021Z 11006KT 25/15 A3003 RMK A01 T02460145  RH  053%=      5-min Rain = 0
KTA1 031022Z 11006KT 25/15 A3003 RMK A01 T02460145  RH  053%=      5-min Rain = 0
KTA1 031023Z 11006KT 25/15 A3003 RMK A01 T02460146  RH  053%=      5-min Rain = 0
KTA1 031024Z 11006KT 25/15 A3003 RMK A01 T02460145  RH  053%=      5-min Rain = 0
KTA1 031025Z 11007KT 25/15 A3003 RMK A01 T02460145  RH  053%=      5-min Rain = 0
KTA1 031026Z 11007KT 25/15 A3003 RMK A01 T02460146  RH  053%=      5-min Rain = 0
KTA1 031027Z 12007KT 25/15 A3003 RMK A01 T02470146  RH  053%=      5-min Rain = 0
KTA1 031028Z 12007KT 25/15 A3003 RMK A01 T02480146  RH  053%=      5-min Rain = 0
KTA1 031029Z 12007KT 25/15 A3003 RMK A01 T02480146  RH  053%=      5-min Rain = 0
KTA1 031030Z 12007KT 25/15 A3004 RMK A01 T02480146  RH  053%=      5-min Rain = 0
KTA1 031031Z 12007KT 25/15 A3004 RMK A01 T02480147  RH  053%=      5-min Rain = 0
KTA1 031032Z 12008KT 25/15 A3004 RMK A01 T02480147  RH  054%=      5-min Rain = 0
KTA1 031033Z 12007KT 25/15 A3004 RMK A01 T02480148  RH  054%=      5-min Rain = 0
KTA1 031034Z 13007KT 25/15 A3004 RMK A01 T02480148  RH  054%=      5-min Rain = 0
KTA1 031035Z 13007KT 25/15 A3004 RMK A01 T02480149  RH  054%=      5-min Rain = 0
KTA1 031036Z 14007KT 25/15 A3004 RMK A01 T02480149  RH  054%=      5-min Rain = 0
KTA1 031037Z 14006KT 25/15 A3004 RMK A01 T02480150  RH  054%=      5-min Rain = 0
KTA1 031038Z 14005KT 25/15 A3004 RMK A01 T02480150  RH  054%=      5-min Rain = 0
KTA1 031039Z 14006KT 25/15 A3004 RMK A01 T02480150  RH  054%=      5-min Rain = 0
KTA1 031040Z 14005KT 25/15 A3004 RMK A01 T02480151  RH  055%=      5-min Rain = 0
KTA1 031041Z 14006KT 25/15 A3004 RMK A01 T02480151  RH  055%=      5-min Rain = 0
KTA1 031042Z 15006KT 25/15 A3004 RMK A01 T02480152  RH  055%=      5-min Rain = 0
KTA1 031043Z 14006KT 25/15 A3004 RMK A01 T02480152  RH  055%=      5-min Rain = 0
KTA1 031044Z 14007KT 25/15 A3004 RMK A01 T02490153  RH  055%=      5-min Rain = 0
KTA1 031045Z 14007KT 25/15 A3004 RMK A01 T02490153  RH  055%=      5-min Rain = 0
KTA1 031046Z 14007KT 25/15 A3004 RMK A01 T02490153  RH  055%=      5-min Rain = 0
KTA1 031047Z 14008KT 25/15 A3004 RMK A01 T02490153  RH  055%=      5-min Rain = 0
KTA1 031048Z 14008KT 25/15 A3004 RMK A01 T02490154  RH  055%=      5-min Rain = 0
KTA1 031049Z 14009KT 25/15 A3004 RMK A01 T02500154  RH  055%=      5-min Rain = 0
KTA1 031050Z 13008KT 25/16 A3004 RMK A01 T02500155  RH  056%=      5-min Rain = 0
KTA1 031051Z 13008KT 25/16 A3004 RMK A01 T02510155  RH  055%=      5-min Rain = 0
KTA1 031052Z 14008KT 25/16 A3004 RMK A01 T02510155  RH  056%=      5-min Rain = 0
KTA1 031053Z 14008KT 25/16 A3004 RMK A01 T02510156  RH  056%=      5-min Rain = 0
KTA1 031054Z 14007KT 25/16 A3004 RMK A01 T02510156  RH  056%=      5-min Rain = 0
KTA1 031055Z 14007KT 25/16 A3004 RMK A01 T02500156  RH  056%=      5-min Rain = 0
KTA1 031056Z 14008KT 25/16 A3004 RMK A01 T02500156  RH  056%=      5-min Rain = 0
KTA1 031057Z 14008KT 25/16 A3004 RMK A01 T02500156  RH  056%=      5-min Rain = 0
KTA1 031058Z 14008KT 25/16 A3004 RMK A01 T02500157  RH  056%=      5-min Rain = 0
KTA1 031059Z 14008KT 25/16 A3004 RMK A01 T02500156  RH  056%=      5-min Rain = 0
KTA1 031100Z 15008KT 25/16 A3004 RMK A01 T02500156  RH  056%=      5-min Rain = 0
KTA1 031101Z 14008KT 25/16 A3004 RMK A01 T02500156  RH  056%=      5-min Rain = 0
KTA1 031102Z 15008KT 25/16 A3004 RMK A01 T02500157  RH  056%=      5-min Rain = 0
KTA1 031103Z 15009KT 25/16 A3004 RMK A01 T02500157  RH  056%=      5-min Rain = 0
KTA1 031104Z 15008KT 25/16 A3004 RMK A01 T02510157  RH  056%=      5-min Rain = 0
KTA1 031105Z 14009KT 25/16 A3004 RMK A01 T02510157  RH  056%=      5-min Rain = 0
KTA1 031106Z 14008KT 25/16 A3004 RMK A01 T02520157  RH  056%=      5-min Rain = 0
KTA1 031107Z 14008KT 25/16 A3004 RMK A01 T02510157  RH  056%=      5-min Rain = 0
KTA1 031108Z 14008KT 25/16 A3004 RMK A01 T02510157  RH  056%=      5-min Rain = 0
KTA1 031109Z 14008KT 25/16 A3004 RMK A01 T02510157  RH  056%=      5-min Rain = 0
KTA1 031110Z 14007KT 25/16 A3004 RMK A01 T02500157  RH  056%=      5-min Rain = 0
KTA1 031111Z 14007KT 25/16 A3004 RMK A01 T02500157  RH  056%=      5-min Rain = 0
KTA1 031112Z 14008KT 25/16 A3004 RMK A01 T02490157  RH  057%=      5-min Rain = 0
KTA1 031113Z 14007KT 25/16 A3004 RMK A01 T02480157  RH  057%=      5-min Rain = 0
KTA1 031114Z 14008KT 25/16 A3005 RMK A01 T02480157  RH  057%=      5-min Rain = 0
KTA1 031115Z 14006KT 25/16 A3005 RMK A01 T02480157  RH  057%=      5-min Rain = 0
KTA1 031116Z 13006KT 25/16 A3005 RMK A01 T02470157  RH  057%=      5-min Rain = 0
KTA1 031117Z 13006KT 25/16 A3005 RMK A01 T02470157  RH  057%=      5-min Rain = 0
KTA1 031118Z 12005KT 25/16 A3005 RMK A01 T02460156  RH  057%=      5-min Rain = 0
KTA1 031119Z 12006KT 25/16 A3005 RMK A01 T02450156  RH  057%=      5-min Rain = 0
KTA1 031120Z 12007KT 24/16 A3005 RMK A01 T02440155  RH  057%=      5-min Rain = 0
KTA1 031121Z 12007KT 24/15 A3005 RMK A01 T02440154  RH  057%=      5-min Rain = 0
KTA1 031122Z 12007KT 24/15 A3005 RMK A01 T02440154  RH  057%=      5-min Rain = 0
KTA1 031123Z 11007KT 24/15 A3005 RMK A01 T02440153  RH  057%=      5-min Rain = 0
KTA1 031124Z 12007KT 24/15 A3005 RMK A01 T02440152  RH  057%=      5-min Rain = 0
KTA1 031125Z 11007KT 24/15 A3005 RMK A01 T02440152  RH  056%=      5-min Rain = 0
KTA1 031126Z 11007KT 24/15 A3005 RMK A01 T02440151  RH  056%=      5-min Rain = 0
KTA1 031127Z 11007KT 24/15 A3005 RMK A01 T02440151  RH  056%=      5-min Rain = 0
KTA1 031128Z 11007KT 24/15 A3005 RMK A01 T02440151  RH  056%=      5-min Rain = 0
KTA1 031129Z 11008KT 24/15 A3005 RMK A01 T02440150  RH  056%=      5-min Rain = 0
KTA1 031130Z 11008KT 24/15 A3005 RMK A01 T02430150  RH  056%=      5-min Rain = 0
KTA1 031131Z 12007KT 24/15 A3005 RMK A01 T02430149  RH  056%=      5-min Rain = 0
KTA1 031132Z 12008KT 24/15 A3005 RMK A01 T02430149  RH  056%=      5-min Rain = 0
KTA1 031133Z 12008KT 24/15 A3005 RMK A01 T02430149  RH  056%=      5-min Rain = 0
KTA1 031134Z 12008KT 24/15 A3005 RMK A01 T02430149  RH  056%=      5-min Rain = 0
KTA1 031135Z 12008KT 24/15 A3005 RMK A01 T02430149  RH  056%=      5-min Rain = 0
KTA1 031136Z 12008KT 24/15 A3005 RMK A01 T02430149  RH  056%=      5-min Rain = 0
KTA1 031137Z 12008KT 24/15 A3005 RMK A01 T02430149  RH  056%=      5-min Rain = 0
KTA1 031138Z 13007KT 24/15 A3005 RMK A01 T02430150  RH  056%=      5-min Rain = 0
KTA1 031139Z 13007KT 24/15 A3005 RMK A01 T02430150  RH  056%=      5-min Rain = 0
KTA1 031140Z 13007KT 24/15 A3005 RMK A01 T02420150  RH  056%=      5-min Rain = 0
KTA1 031141Z 13007KT 24/15 A3005 RMK A01 T02420151  RH  057%=      5-min Rain = 0
KTA1 031142Z 13006KT 24/15 A3005 RMK A01 T02420151  RH  057%=      5-min Rain = 0
KTA1 031143Z 13007KT 24/15 A3005 RMK A01 T02410151  RH  057%=      5-min Rain = 0
KTA1 031144Z 13007KT 24/15 A3005 RMK A01 T02410152  RH  057%=      5-min Rain = 0
KTA1 031145Z 13007KT 24/15 A3005 RMK A01 T02410152  RH  058%=      5-min Rain = 0
KTA1 031146Z 14008KT 24/15 A3005 RMK A01 T02410152  RH  058%=      5-min Rain = 0
KTA1 031147Z 14008KT 24/15 A3005 RMK A01 T02410153  RH  058%=      5-min Rain = 0
KTA1 031148Z 14008KT 24/15 A3005 RMK A01 T02420154  RH  058%=      5-min Rain = 0
KTA1 031149Z 15007KT 24/15 A3005 RMK A01 T02420154  RH  058%=      5-min Rain = 0
KTA1 031150Z 15007KT 24/16 A3005 RMK A01 T02420155  RH  058%=      5-min Rain = 0
KTA1 031151Z 15008KT 24/16 A3005 RMK A01 T02420155  RH  058%=      5-min Rain = 0
KTA1 031152Z 15008KT 24/16 A3005 RMK A01 T02420157  RH  059%=      5-min Rain = 0
KTA1 031153Z 15008KT 24/16 A3005 RMK A01 T02430157  RH  059%=      5-min Rain = 0
KTA1 031154Z 15008KT 24/16 A3005 RMK A01 T02430159  RH  059%=      5-min Rain = 0
KTA1 031155Z 15008KT 24/16 A3005 RMK A01 T02440160  RH  059%=      5-min Rain = 0
KTA1 031156Z 16009KT 25/16 A3005 RMK A01 T02450161  RH  059%=      5-min Rain = 0
KTA1 031157Z 16008KT 25/16 A3005 RMK A01 T02460162  RH  059%=      5-min Rain = 0
KTA1 031158Z 15009KT 25/16 A3005 RMK A01 T02470162  RH  059%=      5-min Rain = 0
KTA1 031159Z 16011KT 25/16 A3005 RMK A01 T02470163  RH  060%=      5-min Rain = 0
KTA1 031200Z 16008KT 25/16 A3005 RMK A01 T02480164  RH  060%=      5-min Rain = 0
KTA1 031201Z 16008KT 25/17 A3005 RMK A01 T02480165  RH  060%=      5-min Rain = 0
KTA1 031202Z 16009KT 25/17 A3005 RMK A01 T02480165  RH  060%=      5-min Rain = 0
KTA1 031203Z 16008KT 25/17 A3005 RMK A01 T02490166  RH  060%=      5-min Rain = 0
KTA1 031204Z 16009KT 25/17 A3005 RMK A01 T02490166  RH  060%=      5-min Rain = 0
KTA1 031205Z 17008KT 25/17 A3005 RMK A01 T02490167  RH  060%=      5-min Rain = 0
KTA1 031206Z 17008KT 25/17 A3005 RMK A01 T02500167  RH  060%=      5-min Rain = 0
KTA1 031207Z 17008KT 25/17 A3005 RMK A01 T02500167  RH  060%=      5-min Rain = 0
KTA1 031208Z 17008KT 25/17 A3005 RMK A01 T02500167  RH  060%=      5-min Rain = 0
KTA1 031209Z 17010KT 25/17 A3005 RMK A01 T02490168  RH  060%=      5-min Rain = 0
KTA1 031210Z 16008KT 25/17 A3005 RMK A01 T02490168  RH  060%=      5-min Rain = 0
KTA1 031211Z 17008KT 25/17 A3006 RMK A01 T02500168  RH  060%=      5-min Rain = 0
KTA1 031212Z 16007KT 25/17 A3006 RMK A01 T02500168  RH  060%=      5-min Rain = 0
KTA1 031213Z 16009KT 25/17 A3006 RMK A01 T02500168  RH  060%=      5-min Rain = 0
KTA1 031214Z 16008KT 25/17 A3006 RMK A01 T02500168  RH  060%=      5-min Rain = 0
KTA1 031215Z 16008KT 25/17 A3006 RMK A01 T02500168  RH  060%=      5-min Rain = 0
KTA1 031216Z 16007KT 25/17 A3006 RMK A01 T02500169  RH  061%=      5-min Rain = 0
KTA1 031217Z 17008KT 25/17 A3006 RMK A01 T02500169  RH  061%=      5-min Rain = 0
KTA1 031218Z 16008KT 25/17 A3006 RMK A01 T02510169  RH  061%=      5-min Rain = 0
KTA1 031219Z 16008KT 25/17 A3006 RMK A01 T02510170  RH  061%=      5-min Rain = 0
KTA1 031220Z 16007KT 25/17 A3006 RMK A01 T02500169  RH  061%=      5-min Rain = 0
KTA1 031221Z 15007KT 25/17 A3006 RMK A01 T02510170  RH  061%=      5-min Rain = 0
KTA1 031222Z 16007KT 25/17 A3006 RMK A01 T02500170  RH  061%=      5-min Rain = 0
KTA1 031223Z 16007KT 25/17 A3006 RMK A01 T02510170  RH  061%=      5-min Rain = 0
KTA1 031224Z 16007KT 25/17 A3006 RMK A01 T02510170  RH  061%=      5-min Rain = 0
KTA1 031225Z 16008KT 25/17 A3006 RMK A01 T02500171  RH  061%=      5-min Rain = 0
KTA1 031226Z 16007KT 25/17 A3006 RMK A01 T02510171  RH  061%=      5-min Rain = 0
KTA1 031227Z 15009KT 25/17 A3006 RMK A01 T02510171  RH  061%=      5-min Rain = 0
KTA1 031228Z 15009KT 25/17 A3006 RMK A01 T02510171  RH  061%=      5-min Rain = 0
KTA1 031229Z 15009KT 25/17 A3006 RMK A01 T02510171  RH  061%=      5-min Rain = 0
KTA1 031230Z 14009KT 25/17 A3006 RMK A01 T02520172  RH  061%=      5-min Rain = 0
KTA1 031231Z 14012KT 25/17 A3006 RMK A01 T02510172  RH  061%=      5-min Rain = 0
KTA1 031232Z 15011KT 25/17 A3007 RMK A01 T02520173  RH  061%=      5-min Rain = 0
KTA1 031233Z 15011KT 25/17 A3007 RMK A01 T02520173  RH  062%=      5-min Rain = 0
KTA1 031234Z 15009KT 25/17 A3007 RMK A01 T02530174  RH  062%=      5-min Rain = 0
KTA1 031235Z 15009KT 25/17 A3007 RMK A01 T02520174  RH  062%=      5-min Rain = 0
KTA1 031236Z 15012KT 25/18 A3007 RMK A01 T02530175  RH  062%=      5-min Rain = 0
KTA1 031237Z 15013KT 25/18 A3007 RMK A01 T02530175  RH  062%=      5-min Rain = 0
KTA1 031238Z 15013KT 25/18 A3007 RMK A01 T02530175  RH  062%=      5-min Rain = 0
KTA1 031239Z 15013KT 25/18 A3007 RMK A01 T02530176  RH  062%=      5-min Rain = 0
KTA1 031240Z 15013KT 25/18 A3007 RMK A01 T02530176  RH  062%=      5-min Rain = 0
KTA1 031241Z 16012KT 25/18 A3007 RMK A01 T02530176  RH  062%=      5-min Rain = 0
KTA1 031242Z 16013KT 25/18 A3007 RMK A01 T02530176  RH  062%=      5-min Rain = 0
KTA1 031243Z 15012KT 25/18 A3007 RMK A01 T02530176  RH  063%=      5-min Rain = 0
KTA1 031244Z 16011KT 25/18 A3007 RMK A01 T02530177  RH  063%=      5-min Rain = 0
KTA1 031245Z 15009KT 25/18 A3007 RMK A01 T02530177  RH  063%=      5-min Rain = 0
KTA1 031246Z 15011KT 25/18 A3007 RMK A01 T02540177  RH  063%=      5-min Rain = 0
KTA1 031247Z 15012KT 25/18 A3007 RMK A01 T02540178  RH  063%=      5-min Rain = 0
KTA1 031248Z 16012KT 25/18 A3007 RMK A01 T02540178  RH  063%=      5-min Rain = 0
KTA1 031249Z 15011KT 25/18 A3007 RMK A01 T02540178  RH  063%=      5-min Rain = 0
KTA1 031250Z 15013KT 25/18 A3007 RMK A01 T02540178  RH  063%=      5-min Rain = 0
KTA1 031251Z 15011KT 25/18 A3007 RMK A01 T02540178  RH  063%=      5-min Rain = 0
KTA1 031252Z 15013KT 26/18 A3007 RMK A01 T02550179  RH  063%=      5-min Rain = 0
KTA1 031253Z 16011KT 26/18 A3007 RMK A01 T02550179  RH  063%=      5-min Rain = 0
KTA1 031254Z 15012KT 26/18 A3007 RMK A01 T02550179  RH  063%=      5-min Rain = 0
KTA1 031255Z 15013KT 26/18 A3007 RMK A01 T02550180  RH  063%=      5-min Rain = 0
KTA1 031256Z 15013KT 26/18 A3007 RMK A01 T02550180  RH  063%=      5-min Rain = 0
KTA1 031257Z 15010KT 26/18 A3007 RMK A01 T02550180  RH  063%=      5-min Rain = 0
KTA1 031258Z 15011KT 26/18 A3007 RMK A01 T02550181  RH  064%=      5-min Rain = 0
KTA1 031259Z 15012KT 26/18 A3007 RMK A01 T02550181  RH  064%=      5-min Rain = 0
KTA1 031300Z 15010KT 26/18 A3007 RMK A01 T02550182  RH  064%=      5-min Rain = 0
KTA1 031301Z 16015KT 25/18 A3007 RMK A01 T02540182  RH  064%=      5-min Rain = 0
KTA1 031302Z 16014KT 25/18 A3007 RMK A01 T02530182  RH  065%=      5-min Rain = 0
KTA1 031303Z 15013KT 25/18 A3007 RMK A01 T02530182  RH  065%=      5-min Rain = 0
KTA1 031304Z 15012KT 25/18 A3007 RMK A01 T02530183  RH  065%=      5-min Rain = 0
KTA1 031305Z 15013KT 25/18 A3007 RMK A01 T02530183  RH  065%=      5-min Rain = 0
KTA1 031306Z 15013KT 25/18 A3007 RMK A01 T02530183  RH  065%=      5-min Rain = 0
KTA1 031307Z 15013KT 25/18 A3007 RMK A01 T02540183  RH  065%=      5-min Rain = 0
KTA1 031308Z 16009KT 25/18 A3007 RMK A01 T02540183  RH  065%=      5-min Rain = 0
KTA1 031309Z 17010KT 26/18 A3007 RMK A01 T02550184  RH  065%=      5-min Rain = 0
KTA1 031310Z 16011KT 26/18 A3007 RMK A01 T02550184  RH  065%=      5-min Rain = 0
KTA1 031311Z 16010KT 26/18 A3007 RMK A01 T02550184  RH  065%=      5-min Rain = 0
KTA1 031312Z 16011KT 26/18 A3007 RMK A01 T02560184  RH  065%=      5-min Rain = 0
KTA1 031313Z 16008G13KT 26/19 A3007 RMK A01 T02560185  RH  065%=      5-min Rain = 0
KTA1 031314Z 16009KT 26/19 A3008 RMK A01 T02560185  RH  065%=      5-min Rain = 0
KTA1 031315Z 15010KT 26/19 A3008 RMK A01 T02570186  RH  065%=      5-min Rain = 0
KTA1 031316Z 16009G14KT 26/19 A3008 RMK A01 T02570186  RH  065%=      5-min Rain = 0
KTA1 031317Z 17012KT 26/19 A3008 RMK A01 T02570186  RH  065%=      5-min Rain = 0
KTA1 031318Z 16009KT 26/19 A3008 RMK A01 T02570186  RH  065%=      5-min Rain = 0
KTA1 031319Z 15009KT 26/19 A3008 RMK A01 T02570187  RH  065%=      5-min Rain = 0
KTA1 031320Z 16011KT 26/19 A3008 RMK A01 T02580187  RH  065%=      5-min Rain = 0
KTA1 031321Z 16012KT 26/19 A3008 RMK A01 T02580187  RH  065%=      5-min Rain = 0
KTA1 031322Z 17010KT 26/19 A3008 RMK A01 T02570187  RH  065%=      5-min Rain = 0
KTA1 031323Z 15007KT 26/19 A3008 RMK A01 T02570188  RH  065%=      5-min Rain = 0
KTA1 031324Z 16010KT 26/19 A3008 RMK A01 T02570188  RH  066%=      5-min Rain = 0
KTA1 031325Z 17011KT 26/19 A3008 RMK A01 T02580188  RH  065%=      5-min Rain = 0
KTA1 031326Z 16009KT 26/19 A3008 RMK A01 T02580188  RH  065%=      5-min Rain = 0
KTA1 031327Z 15010KT 26/19 A3008 RMK A01 T02580189  RH  066%=      5-min Rain = 0
KTA1 031328Z 16011KT 26/19 A3008 RMK A01 T02580189  RH  066%=      5-min Rain = 0
KTA1 031329Z 16011KT 26/19 A3008 RMK A01 T02580189  RH  065%=      5-min Rain = 0
KTA1 031330Z 16011KT 26/19 A3008 RMK A01 T02580189  RH  066%=      5-min Rain = 0
KTA1 031331Z 16013KT 26/19 A3008 RMK A01 T02580190  RH  066%=      5-min Rain = 0
KTA1 031332Z 16011KT 26/19 A3008 RMK A01 T02580190  RH  066%=      5-min Rain = 0
KTA1 031333Z 15009KT 26/19 A3008 RMK A01 T02580190  RH  066%=      5-min Rain = 0
KTA1 031334Z 15011KT 26/19 A3008 RMK A01 T02580190  RH  066%=      5-min Rain = 0
KTA1 031335Z 15011KT 26/19 A3008 RMK A01 T02580190  RH  066%=      5-min Rain = 0
KTA1 031336Z 15011KT 26/19 A3008 RMK A01 T02580190  RH  066%=      5-min Rain = 0
KTA1 031337Z 15009KT 26/19 A3008 RMK A01 T02590191  RH  066%=      5-min Rain = 0
KTA1 031338Z 16008KT 26/19 A3008 RMK A01 T02600191  RH  066%=      5-min Rain = 0
KTA1 031339Z 17009KT 26/19 A3008 RMK A01 T02620192  RH  065%=      5-min Rain = 0
KTA1 031340Z 15012KT 26/19 A3008 RMK A01 T02620191  RH  065%=      5-min Rain = 0
KTA1 031341Z 17013KT 26/19 A3008 RMK A01 T02620192  RH  065%=      5-min Rain = 0
KTA1 031342Z 15010KT 26/19 A3008 RMK A01 T02620192  RH  065%=      5-min Rain = 0
KTA1 031343Z 16010KT 26/19 A3008 RMK A01 T02610192  RH  065%=      5-min Rain = 0
KTA1 031344Z 17012KT 26/19 A3008 RMK A01 T02620192  RH  065%=      5-min Rain = 0
KTA1 031345Z 17012KT 26/19 A3008 RMK A01 T02620192  RH  065%=      5-min Rain = 0
KTA1 031346Z 16010KT 26/19 A3008 RMK A01 T02620192  RH  066%=      5-min Rain = 0
KTA1 031347Z 16009KT 26/19 A3008 RMK A01 T02620193  RH  066%=      5-min Rain = 0
KTA1 031348Z 16011KT 26/19 A3008 RMK A01 T02630193  RH  065%=      5-min Rain = 0
KTA1 031349Z 17011KT 26/19 A3008 RMK A01 T02630193  RH  065%=      5-min Rain = 0
KTA1 031350Z 15010KT 26/19 A3008 RMK A01 T02640193  RH  065%=      5-min Rain = 0
KTA1 031351Z 15010KT 26/19 A3008 RMK A01 T02630194  RH  066%=      5-min Rain = 0
KTA1 031352Z 15013KT 27/19 A3008 RMK A01 T02650194  RH  065%=      5-min Rain = 0
KTA1 031353Z 14013KT 26/19 A3008 RMK A01 T02640193  RH  065%=      5-min Rain = 0
KTA1 031354Z 15013KT 26/19 A3008 RMK A01 T02640193  RH  065%=      5-min Rain = 0
KTA1 031355Z 14013KT 27/19 A3008 RMK A01 T02650194  RH  065%=      5-min Rain = 0
KTA1 031356Z 16010KT 27/19 A3008 RMK A01 T02650194  RH  065%=      5-min Rain = 0
KTA1 031357Z 16011KT 27/19 A3008 RMK A01 T02650194  RH  065%=      5-min Rain = 0
KTA1 031358Z 16013KT 27/19 A3008 RMK A01 T02660194  RH  065%=      5-min Rain = 0
KTA1 031359Z 16010KT 27/20 A3008 RMK A01 T02660195  RH  065%=      5-min Rain = 0
KTA1 031400Z 16008KT 27/20 A3008 RMK A01 T02660195  RH  065%=      5-min Rain = 0
KTA1 031401Z 17010KT 27/20 A3008 RMK A01 T02680196  RH  065%=      5-min Rain = 0
KTA1 031402Z 17011KT 27/20 A3008 RMK A01 T02690195  RH  064%=      5-min Rain = 0
KTA1 031403Z 17011KT 27/20 A3008 RMK A01 T02680195  RH  064%=      5-min Rain = 0
KTA1 031404Z 17013KT 27/20 A3008 RMK A01 T02680195  RH  064%=      5-min Rain = 0
KTA1 031405Z 16012KT 27/19 A3008 RMK A01 T02670194  RH  064%=      5-min Rain = 0
KTA1 031406Z 17011KT 27/20 A3008 RMK A01 T02670195  RH  065%=      5-min Rain = 0
KTA1 031407Z 16010KT 27/20 A3008 RMK A01 T02680195  RH  064%=      5-min Rain = 0
KTA1 031408Z 15011KT 27/20 A3008 RMK A01 T02690196  RH  064%=      5-min Rain = 0
KTA1 031409Z 16011KT 27/20 A3008 RMK A01 T02680196  RH  064%=      5-min Rain = 0
KTA1 031410Z 15011KT 27/20 A3008 RMK A01 T02690196  RH  064%=      5-min Rain = 0
KTA1 031411Z 15013KT 27/20 A3008 RMK A01 T02700196  RH  064%=      5-min Rain = 0
KTA1 031412Z 16010KT 27/20 A3008 RMK A01 T02700196  RH  064%=      5-min Rain = 0
KTA1 031413Z 15012KT 27/20 A3008 RMK A01 T02710196  RH  064%=      5-min Rain = 0
KTA1 031414Z 15013KT 27/20 A3008 RMK A01 T02710196  RH  063%=      5-min Rain = 0
KTA1 031415Z 15013KT 27/20 A3008 RMK A01 T02710196  RH  063%=      5-min Rain = 0
KTA1 031416Z 16013KT 27/20 A3008 RMK A01 T02700195  RH  064%=      5-min Rain = 0
KTA1 031417Z 15012KT 27/20 A3008 RMK A01 T02690195  RH  064%=      5-min Rain = 0
KTA1 031418Z 15012KT 27/20 A3008 RMK A01 T02690195  RH  064%=      5-min Rain = 0
KTA1 031419Z 15013KT 27/19 A3008 RMK A01 T02690194  RH  064%=      5-min Rain = 0
KTA1 031420Z 15014KT 27/19 A3008 RMK A01 T02700194  RH  063%=      5-min Rain = 0
KTA1 031421Z 15014KT 27/20 A3008 RMK A01 T02700195  RH  063%=      5-min Rain = 0
KTA1 031422Z 15011KT 27/20 A3008 RMK A01 T02700195  RH  063%=      5-min Rain = 0
KTA1 031423Z 15011KT 27/20 A3008 RMK A01 T02720196  RH  063%=      5-min Rain = 0
KTA1 031424Z 16011KT 27/20 A3008 RMK A01 T02730196  RH  063%=      5-min Rain = 0
KTA1 031425Z 16008KT 27/20 A3008 RMK A01 T02730197  RH  063%=      5-min Rain = 0
KTA1 031426Z 16008KT 27/20 A3008 RMK A01 T02740198  RH  063%=      5-min Rain = 0
KTA1 031427Z 15011KT 28/20 A3008 RMK A01 T02760197  RH  062%=      5-min Rain = 0
KTA1 031428Z 16012KT 28/20 A3008 RMK A01 T02760197  RH  062%=      5-min Rain = 0
KTA1 031429Z 15009KT 28/20 A3008 RMK A01 T02750196  RH  062%=      5-min Rain = 0
KTA1 031430Z 15010KT 28/20 A3008 RMK A01 T02750197  RH  062%=      5-min Rain = 0
KTA1 031431Z 15011KT 28/20 A3008 RMK A01 T02780197  RH  061%=      5-min Rain = 0
KTA1 031432Z 15012KT 28/20 A3008 RMK A01 T02790196  RH  061%=      5-min Rain = 0
KTA1 031433Z 16011KT 28/20 A3008 RMK A01 T02780197  RH  061%=      5-min Rain = 0
KTA1 031434Z 15011KT 28/20 A3008 RMK A01 T02760197  RH  062%=      5-min Rain = 0
KTA1 031435Z 14011KT 28/20 A3008 RMK A01 T02770197  RH  062%=      5-min Rain = 0
KTA1 031436Z 15010KT 28/20 A3008 RMK A01 T02770196  RH  061%=      5-min Rain = 0
KTA1 031437Z 16009KT 28/20 A3008 RMK A01 T02790197  RH  061%=      5-min Rain = 0
KTA1 031438Z 17009KT 28/20 A3008 RMK A01 T02800198  RH  061%=      5-min Rain = 0
KTA1 031439Z 17010KT 28/20 A3008 RMK A01 T02810196  RH  060%=      5-min Rain = 0
KTA1 031440Z 17011KT 28/20 A3008 RMK A01 T02820197  RH  060%=      5-min Rain = 0
KTA1 031441Z 17011KT 28/20 A3008 RMK A01 T02820197  RH  060%=      5-min Rain = 0
KTA1 031442Z 18011KT 28/20 A3008 RMK A01 T02820196  RH  060%=      5-min Rain = 0
KTA1 031443Z 17009KT 28/20 A3008 RMK A01 T02810196  RH  060%=      5-min Rain = 0
KTA1 031444Z 16010KT 28/20 A3008 RMK A01 T02820197  RH  060%=      5-min Rain = 0
KTA1 031445Z 17009KT 28/20 A3008 RMK A01 T02830197  RH  060%=      5-min Rain = 0
KTA1 031446Z 18012KT 28/20 A3008 RMK A01 T02840196  RH  059%=      5-min Rain = 0
KTA1 031447Z 18012KT 28/20 A3008 RMK A01 T02830197  RH  060%=      5-min Rain = 0
KTA1 031448Z 18011KT 28/20 A3008 RMK A01 T02810196  RH  060%=      5-min Rain = 0
KTA1 031449Z 17011KT 28/20 A3008 RMK A01 T02800197  RH  061%=      5-min Rain = 0
KTA1 031450Z 16010KT 28/20 A3008 RMK A01 T02800197  RH  060%=      5-min Rain = 0
KTA1 031451Z 17011KT 28/20 A3008 RMK A01 T02820197  RH  060%=      5-min Rain = 0
KTA1 031452Z 17009KT 28/20 A3008 RMK A01 T02820196  RH  060%=      5-min Rain = 0
KTA1 031453Z 15012KT 28/20 A3008 RMK A01 T02830197  RH  060%=      5-min Rain = 0
KTA1 031454Z 15010KT 28/20 A3009 RMK A01 T02840196  RH  059%=      5-min Rain = 0
KTA1 031455Z 16008KT 29/20 A3009 RMK A01 T02850197  RH  059%=      5-min Rain = 0
KTA1 031456Z 16009KT 29/20 A3009 RMK A01 T02860198  RH  059%=      5-min Rain = 0
KTA1 031457Z 16011KT 29/20 A3009 RMK A01 T02880196  RH  058%=      5-min Rain = 0
KTA1 031458Z 17009KT 29/20 A3008 RMK A01 T02870196  RH  058%=      5-min Rain = 0
KTA1 031459Z 18008KT 29/20 A3008 RMK A01 T02860197  RH  058%=      5-min Rain = 0
KTA1 031500Z 16008KT 29/20 A3008 RMK A01 T02870197  RH  058%=      5-min Rain = 0
KTA1 031501Z 17008KT 29/20 A3008 RMK A01 T02880197  RH  058%=      5-min Rain = 0
KTA1 031502Z 17011KT 29/20 A3008 RMK A01 T02890197  RH  058%=      5-min Rain = 0
KTA1 031503Z 18011KT 29/20 A3008 RMK A01 T02900196  RH  057%=      5-min Rain = 0
KTA1 031504Z 17009KT 29/20 A3008 RMK A01 T02880196  RH  057%=      5-min Rain = 0
KTA1 031505Z 15009KT 29/20 A3008 RMK A01 T02870197  RH  058%=      5-min Rain = 0
KTA1 031506Z 16010KT 29/20 A3008 RMK A01 T02870197  RH  058%=      5-min Rain = 0
KTA1 031507Z 15008KT 29/20 A3008 RMK A01 T02880198  RH  058%=      5-min Rain = 0
KTA1 031508Z 17010KT 29/20 A3008 RMK A01 T02890198  RH  058%=      5-min Rain = 0
KTA1 031509Z 17010KT 29/20 A3008 RMK A01 T02890197  RH  058%=      5-min Rain = 0
KTA1 031510Z 18009KT 29/20 A3008 RMK A01 T02880197  RH  058%=      5-min Rain = 0
KTA1 031511Z 17010KT 29/20 A3008 RMK A01 T02880197  RH  058%=      5-min Rain = 0
KTA1 031512Z 15010KT 29/20 A3008 RMK A01 T02880197  RH  058%=      5-min Rain = 0
KTA1 031513Z 14012KT 29/20 A3008 RMK A01 T02880195  RH  057%=      5-min Rain = 0
KTA1 031514Z 15011KT 29/20 A3008 RMK A01 T02890196  RH  057%=      5-min Rain = 0
KTA1 031515Z 15012KT 29/20 A3008 RMK A01 T02900197  RH  057%=      5-min Rain = 0
KTA1 031516Z 16010KT 29/20 A3008 RMK A01 T02900197  RH  057%=      5-min Rain = 0
KTA1 031517Z 15011KT 29/20 A3008 RMK A01 T02900197  RH  057%=      5-min Rain = 0
KTA1 031518Z 15008KT 29/20 A3008 RMK A01 T02910197  RH  057%=      5-min Rain = 0
KTA1 031519Z 17008KT 29/20 A3008 RMK A01 T02910197  RH  057%=      5-min Rain = 0
KTA1 031520Z 17009KT 29/20 A3008 RMK A01 T02920198  RH  057%=      5-min Rain = 0
KTA1 031521Z 16012KT 29/20 A3008 RMK A01 T02930198  RH  056%=      5-min Rain = 0
KTA1 031522Z 15010KT 29/20 A3008 RMK A01 T02940197  RH  056%=      5-min Rain = 0
KTA1 031523Z 14010KT 29/20 A3008 RMK A01 T02930197  RH  056%=      5-min Rain = 0
KTA1 031524Z 16012KT 30/20 A3008 RMK A01 T02950196  RH  055%=      5-min Rain = 0
KTA1 031525Z 16009KT 30/20 A3008 RMK A01 T02950196  RH  055%=      5-min Rain = 0
KTA1 031526Z 17006KT 30/20 A3008 RMK A01 T02950197  RH  056%=      5-min Rain = 0
KTA1 031527Z 17008KT 30/20 A3008 RMK A01 T02960198  RH  056%=      5-min Rain = 0
KTA1 031528Z 16010KT 30/20 A3008 RMK A01 T02980197  RH  055%=      5-min Rain = 0
KTA1 031529Z 15010G15KT 30/20 A3008 RMK A01 T02990198  RH  055%=      5-min Rain = 0
KTA1 031530Z 14008KT 30/20 A3008 RMK A01 T02960198  RH  055%=      5-min Rain = 0
KTA1 031531Z 16008KT 30/20 A3008 RMK A01 T02960198  RH  055%=      5-min Rain = 0
KTA1 031532Z 15011KT 30/20 A3008 RMK A01 T02960197  RH  055%=      5-min Rain = 0
KTA1 031533Z 15010KT 30/20 A3008 RMK A01 T02960197  RH  055%=      5-min Rain = 0
KTA1 031534Z 16008KT 30/20 A3008 RMK A01 T02960197  RH  055%=      5-min Rain = 0
KTA1 031535Z 16009KT 30/20 A3008 RMK A01 T02970197  RH  055%=      5-min Rain = 0
KTA1 031536Z 16007G12KT 30/20 A3008 RMK A01 T02990197  RH  054%=      5-min Rain = 0
KTA1 031537Z 15012KT 30/20 A3008 RMK A01 T03010195  RH  053%=      5-min Rain = 0
KTA1 031538Z 16010KT 30/20 A3008 RMK A01 T03010195  RH  053%=      5-min Rain = 0
KTA1 031539Z 17010KT 30/20 A3008 RMK A01 T02990195  RH  053%=      5-min Rain = 0
KTA1 031540Z 17010KT 30/20 A3008 RMK A01 T02980195  RH  054%=      5-min Rain = 0
KTA1 031541Z 16009KT 30/20 A3008 RMK A01 T02980196  RH  054%=      5-min Rain = 0
KTA1 031542Z 15007KT 30/20 A3008 RMK A01 T02990197  RH  054%=      5-min Rain = 0
KTA1 031543Z 17008KT 30/20 A3008 RMK A01 T03000197  RH  054%=      5-min Rain = 0
KTA1 031544Z 15009KT 30/20 A3008 RMK A01 T03020196  RH  053%=      5-min Rain = 0
KTA1 031545Z 14011KT 30/20 A3008 RMK A01 T03020196  RH  053%=      5-min Rain = 0
KTA1 031546Z 18009KT 31/20 A3008 RMK A01 T03050197  RH  053%=      5-min Rain = 0
KTA1 031547Z 16012KT 31/20 A3008 RMK A01 T03070195  RH  051%=      5-min Rain = 0
KTA1 031548Z 17010KT 31/20 A3008 RMK A01 T03060195  RH  051%=      5-min Rain = 0
KTA1 031549Z 18009KT 31/20 A3008 RMK A01 T03060195  RH  052%=      5-min Rain = 0
KTA1 031550Z 19009KT 31/19 A3008 RMK A01 T03050194  RH  052%=      5-min Rain = 0
KTA1 031551Z 18009KT 30/20 A3008 RMK A01 T03020195  RH  053%=      5-min Rain = 0
KTA1 031552Z 17009KT 30/20 A3008 RMK A01 T03010195  RH  053%=      5-min Rain = 0
KTA1 031553Z 18009KT 30/20 A3008 RMK A01 T03030196  RH  053%=      5-min Rain = 0
KTA1 031554Z 18009KT 31/20 A3008 RMK A01 T03050195  RH  052%=      5-min Rain = 0
KTA1 031555Z 16009KT 31/20 A3008 RMK A01 T03050195  RH  052%=      5-min Rain = 0
KTA1 031556Z 14011KT 30/19 A3008 RMK A01 T03040193  RH  052%=      5-min Rain = 0
KTA1 031557Z 14010KT 31/19 A3008 RMK A01 T03050191  RH  051%=      5-min Rain = 0
KTA1 031558Z 15008KT 31/19 A3008 RMK A01 T03060193  RH  051%=      5-min Rain = 0
KTA1 031559Z 14012KT 31/19 A3008 RMK A01 T03070193  RH  051%=      5-min Rain = 0
KTA1 031600Z 15011KT 31/19 A3008 RMK A01 T03080190  RH  049%=      5-min Rain = 0
KTA1 031601Z 14011KT 31/19 A3008 RMK A01 T03070192  RH  050%=      5-min Rain = 0
KTA1 031602Z 15011KT 31/19 A3008 RMK A01 T03070192  RH  050%=      5-min Rain = 0
KTA1 031603Z 16008KT 31/19 A3008 RMK A01 T03080194  RH  051%=      5-min Rain = 0
KTA1 031604Z 15011KT 31/19 A3008 RMK A01 T03100193  RH  050%=      5-min Rain = 0
KTA1 031605Z 15011KT 31/19 A3008 RMK A01 T03100189  RH  049%=      5-min Rain = 0
KTA1 031606Z 14010KT 31/19 A3008 RMK A01 T03090189  RH  049%=      5-min Rain = 0
KTA1 031607Z 14011KT 31/19 A3008 RMK A01 T03100190  RH  049%=      5-min Rain = 0
KTA1 031608Z 14009G14KT 31/19 A3008 RMK A01 T03120191  RH  048%=      5-min Rain = 0
KTA1 031609Z 15011KT 31/19 A3008 RMK A01 T03120191  RH  049%=      5-min Rain = 0
KTA1 031610Z 17012KT 31/19 A3008 RMK A01 T03120191  RH  048%=      5-min Rain = 0
KTA1 031611Z 18014KT 31/19 A3008 RMK A01 T03120188  RH  048%=      5-min Rain = 0
KTA1 031612Z 17009KT 31/19 A3008 RMK A01 T03100189  RH  049%=      5-min Rain = 0
KTA1 031613Z 18011G16KT 31/19 A3008 RMK A01 T03080190  RH  049%=      5-min Rain = 0
KTA1 031614Z 18008KT 31/19 A3008 RMK A01 T03080190  RH  049%=      5-min Rain = 0
KTA1 031615Z 16009G14KT 31/19 A3008 RMK A01 T03070191  RH  050%=      5-min Rain = 0
KTA1 031616Z 14011KT 31/19 A3008 RMK A01 T03090191  RH  049%=      5-min Rain = 0
KTA1 031617Z 14009KT 31/19 A3008 RMK A01 T03090191  RH  050%=      5-min Rain = 0
KTA1 031618Z 14011KT 31/19 A3008 RMK A01 T03090190  RH  049%=      5-min Rain = 0
KTA1 031619Z 15011KT 31/19 A3008 RMK A01 T03100186  RH  048%=      5-min Rain = 0
KTA1 031620Z 14012KT 31/19 A3008 RMK A01 T03110185  RH  047%=      5-min Rain = 0
KTA1 031621Z 16011KT 31/19 A3008 RMK A01 T03130187  RH  047%=      5-min Rain = 0
KTA1 031622Z 16010KT 31/19 A3008 RMK A01 T03130189  RH  048%=      5-min Rain = 0
KTA1 031623Z 18007KT 31/19 A3008 RMK A01 T03130189  RH  048%=      5-min Rain = 0
KTA1 031624Z 15009KT 31/19 A3008 RMK A01 T03130189  RH  048%=      5-min Rain = 0
KTA1 031625Z 14009KT 32/19 A3008 RMK A01 T03160187  RH  046%=      5-min Rain = 0
KTA1 031626Z 15010KT 32/19 A3008 RMK A01 T03170188  RH  046%=      5-min Rain = 0
KTA1 031627Z 16010KT 32/19 A3008 RMK A01 T03180187  RH  046%=      5-min Rain = 0
KTA1 031628Z 17009KT 32/19 A3008 RMK A01 T03190186  RH  045%=      5-min Rain = 0
KTA1 031629Z 16007KT 32/19 A3008 RMK A01 T03180188  RH  046%=      5-min Rain = 0
KTA1 031630Z 17009KT 32/19 A3008 RMK A01 T03190187  RH  046%=      5-min Rain = 0
KTA1 031631Z 16008KT 32/19 A3008 RMK A01 T03180187  RH  046%=      5-min Rain = 0
KTA1 031632Z 14007KT 32/19 A3008 RMK A01 T03160188  RH  047%=      5-min Rain = 0
KTA1 031633Z 15010KT 32/19 A3008 RMK A01 T03150187  RH  047%=      5-min Rain = 0
KTA1 031634Z 15012KT 32/19 A3008 RMK A01 T03150186  RH  046%=      5-min Rain = 0
KTA1 031635Z 16010KT 32/19 A3008 RMK A01 T03170187  RH  046%=      5-min Rain = 0
KTA1 031636Z 17011KT 32/19 A3008 RMK A01 T03180185  RH  045%=      5-min Rain = 0
KTA1 031637Z 17010G15KT 32/19 A3008 RMK A01 T03180185  RH  045%=      5-min Rain = 0
KTA1 031638Z 16010G15KT 32/19 A3008 RMK A01 T03170185  RH  046%=      5-min Rain = 0
KTA1 031639Z 15011KT 32/18 A3008 RMK A01 T03170184  RH  045%=      5-min Rain = 0
KTA1 031640Z 16008KT 32/19 A3008 RMK A01 T03170185  RH  045%=      5-min Rain = 0
KTA1 031641Z 17007KT 32/19 A3008 RMK A01 T03200185  RH  045%=      5-min Rain = 0
KTA1 031642Z 19011KT 32/19 A3008 RMK A01 T03240187  RH  044%=      5-min Rain = 0
KTA1 031643Z 17011KT 32/19 A3008 RMK A01 T03230187  RH  045%=      5-min Rain = 0
KTA1 031644Z 17010KT 32/19 A3008 RMK A01 T03210186  RH  045%=      5-min Rain = 0
KTA1 031645Z 18011KT 32/19 A3008 RMK A01 T03190186  RH  045%=      5-min Rain = 0
KTA1 031646Z 19008KT 32/18 A3008 RMK A01 T03180184  RH  045%=      5-min Rain = 0
KTA1 031647Z 18006KT 32/18 A3008 RMK A01 T03170184  RH  045%=      5-min Rain = 0
KTA1 031648Z 18010KT 32/18 A3008 RMK A01 T03160184  RH  045%=      5-min Rain = 0
KTA1 031649Z 14013KT 32/18 A3008 RMK A01 T03200183  RH  044%=      5-min Rain = 0
KTA1 031650Z 15011KT 32/18 A3008 RMK A01 T03240180  RH  042%=      5-min Rain = 0
KTA1 031651Z 16006KT 32/18 A3008 RMK A01 T03230182  RH  043%=      5-min Rain = 0
KTA1 031652Z 15005KT 32/18 A3008 RMK A01 T03220183  RH  044%=      5-min Rain = 0
KTA1 031653Z 14009KT 32/18 A3008 RMK A01 T03240184  RH  043%=      5-min Rain = 0
KTA1 031654Z 14006KT 33/18 A3008 RMK A01 T03260183  RH  043%=      5-min Rain = 0
KTA1 031655Z 16008KT 33/18 A3008 RMK A01 T03280183  RH  042%=      5-min Rain = 0
KTA1 031656Z 16010KT 33/18 A3008 RMK A01 T03270183  RH  042%=      5-min Rain = 0
KTA1 031657Z 15011KT 33/18 A3008 RMK A01 T03260179  RH  042%=      5-min Rain = 0
KTA1 031658Z 17011KT 33/18 A3008 RMK A01 T03250182  RH  043%=      5-min Rain = 0
KTA1 031659Z 16011KT 32/18 A3008 RMK A01 T03240180  RH  042%=      5-min Rain = 0
KTA1 031700Z 15012KT 33/18 A3008 RMK A01 T03250180  RH  042%=      5-min Rain = 0
KTA1 031701Z 14008KT 32/18 A3008 RMK A01 T03230180  RH  043%=      5-min Rain = 0
KTA1 031702Z 15009KT 32/18 A3008 RMK A01 T03200179  RH  043%=      5-min Rain = 0
KTA1 031703Z 15008G13KT 32/18 A3008 RMK A01 T03200180  RH  043%=      5-min Rain = 0
KTA1 031704Z 16009KT 32/18 A3008 RMK A01 T03220181  RH  043%=      5-min Rain = 0
KTA1 031705Z 17008G13KT 33/18 A3008 RMK A01 T03260182  RH  042%=      5-min Rain = 0
KTA1 031706Z 15009KT 33/18 A3008 RMK A01 T03300179  RH  041%=      5-min Rain = 0
KTA1 031707Z 15008G13KT 33/18 A3008 RMK A01 T03320179  RH  040%=      5-min Rain = 0
KTA1 031708Z 16011KT 33/18 A3008 RMK A01 T03320178  RH  040%=      5-min Rain = 0
KTA1 031709Z 15010KT 33/18 A3008 RMK A01 T03280179  RH  041%=      5-min Rain = 0
KTA1 031710Z 14011G16KT 33/18 A3008 RMK A01 T03280179  RH  041%=      5-min Rain = 0
KTA1 031711Z 15006KT 33/18 A3008 RMK A01 T03280178  RH  041%=      5-min Rain = 0
KTA1 031712Z 15006G11KT 33/18 A3008 RMK A01 T03280180  RH  041%=      5-min Rain = 0
KTA1 031713Z 12012KT 33/18 A3008 RMK A01 T03290178  RH  041%=      5-min Rain = 0
KTA1 031714Z 12015KT 33/18 A3008 RMK A01 T03330176  RH  039%=      5-min Rain = 0
KTA1 031715Z 11015KT 33/18 A3008 RMK A01 T03340175  RH  039%=      5-min Rain = 0
KTA1 031716Z 10012KT 34/17 A3008 RMK A01 T03360168  RH  037%=      5-min Rain = 0
KTA1 031717Z 11010KT 34/17 A3008 RMK A01 T03350169  RH  037%=      5-min Rain = 0
KTA1 031718Z 11011KT 33/17 A3008 RMK A01 T03340172  RH  038%=      5-min Rain = 0
KTA1 031719Z 12013KT 33/17 A3008 RMK A01 T03320174  RH  039%=      5-min Rain = 0
KTA1 031720Z 13012KT 34/18 A3008 RMK A01 T03350175  RH  039%=      5-min Rain = 0
KTA1 031721Z 12009KT 34/18 A3008 RMK A01 T03350176  RH  039%=      5-min Rain = 0
KTA1 031722Z 11011G16KT 34/17 A3008 RMK A01 T03380170  RH  037%=      5-min Rain = 0
KTA1 031723Z 12011G17KT 34/17 A3008 RMK A01 T03350167  RH  037%=      5-min Rain = 0
KTA1 031724Z 14013KT 33/17 A3008 RMK A01 T03320170  RH  038%=      5-min Rain = 0
KTA1 031725Z 15011KT 33/17 A3008 RMK A01 T03320171  RH  038%=      5-min Rain = 0
KTA1 031726Z 16009KT 33/17 A3008 RMK A01 T03320171  RH  038%=      5-min Rain = 0
KTA1 031727Z 15005KT 33/17 A3008 RMK A01 T03280170  RH  039%=      5-min Rain = 0
KTA1 031728Z 13006KT 33/17 A3008 RMK A01 T03250170  RH  039%=      5-min Rain = 0
KTA1 031729Z 16011G16KT 33/17 A3008 RMK A01 T03270170  RH  039%=      5-min Rain = 0
KTA1 031730Z 16012KT 33/17 A3008 RMK A01 T03310173  RH  039%=      5-min Rain = 0
KTA1 031731Z 16009KT 33/17 A3008 RMK A01 T03300173  RH  039%=      5-min Rain = 0
KTA1 031732Z 15009KT 33/17 A3008 RMK A01 T03300173  RH  039%=      5-min Rain = 0
KTA1 031733Z 13007KT 33/17 A3008 RMK A01 T03300170  RH  038%=      5-min Rain = 0
KTA1 031734Z 15009KT 33/17 A3008 RMK A01 T03300171  RH  039%=      5-min Rain = 0
KTA1 031735Z 17008KT 34/17 A3008 RMK A01 T03350171  RH  038%=      5-min Rain = 0
KTA1 031736Z 15007G13KT 34/17 A3008 RMK A01 T03370170  RH  037%=      5-min Rain = 0
KTA1 031737Z 15011KT 34/17 A3008 RMK A01 T03360171  RH  037%=      5-min Rain = 0
KTA1 031738Z 17013KT 34/17 A3008 RMK A01 T03360171  RH  038%=      5-min Rain = 0
KTA1 031739Z 16011KT 34/17 A3008 RMK A01 T03370170  RH  037%=      5-min Rain = 0
KTA1 031740Z 12011KT 34/17 A3008 RMK A01 T03360169  RH  037%=      5-min Rain = 0
KTA1 031741Z 11008KT 33/17 A3008 RMK A01 T03330169  RH  038%=      5-min Rain = 0
KTA1 031742Z 15011G17KT 33/17 A3008 RMK A01 T03330169  RH  037%=      5-min Rain = 0
KTA1 031743Z 16012KT 34/17 A3008 RMK A01 T03350169  RH  037%=      5-min Rain = 0
KTA1 031744Z 17006KT 33/17 A3008 RMK A01 T03340167  RH  037%=      5-min Rain = 0
KTA1 031745Z 14009G14KT 33/17 A3008 RMK A01 T03310167  RH  038%=      5-min Rain = 0
KTA1 031746Z 15008G13KT 33/17 A3008 RMK A01 T03310168  RH  038%=      5-min Rain = 0
KTA1 031747Z 17007KT 33/17 A3008 RMK A01 T03310170  RH  038%=      5-min Rain = 0
KTA1 031748Z 15009KT 33/17 A3008 RMK A01 T03300171  RH  039%=      5-min Rain = 0
KTA1 031749Z 12011KT 33/17 A3008 RMK A01 T03330168  RH  037%=      5-min Rain = 0
KTA1 031750Z 13010KT 34/17 A3008 RMK A01 T03350165  RH  036%=      5-min Rain = 0
KTA1 031751Z 12009G14KT 33/16 A3008 RMK A01 T03340164  RH  036%=      5-min Rain = 0
KTA1 031752Z 16009KT 33/17 A3008 RMK A01 T03330166  RH  037%=      5-min Rain = 0
KTA1 031753Z 14015KT 33/17 A3008 RMK A01 T03330165  RH  037%=      5-min Rain = 0
KTA1 031754Z 14014KT 34/16 A3008 RMK A01 T03350161  RH  035%=      5-min Rain = 0
KTA1 031755Z 14013KT 34/16 A3008 RMK A01 T03370161  RH  035%=      5-min Rain = 0
KTA1 031756Z 12011KT 34/16 A3007 RMK A01 T03370160  RH  035%=      5-min Rain = 0
KTA1 031757Z 12009KT 34/16 A3007 RMK A01 T03390161  RH  035%=      5-min Rain = 0
KTA1 031758Z 15011KT 34/16 A3007 RMK A01 T03400161  RH  034%=      5-min Rain = 0
KTA1 031759Z 16011KT 34/16 A3007 RMK A01 T03430158  RH  033%=      5-min Rain = 0
KTA1 031800Z 16011KT 34/16 A3007 RMK A01 T03420160  RH  034%=      5-min Rain = 0
KTA1 031801Z 14012KT 34/16 A3007 RMK A01 T03420163  RH  034%=      5-min Rain = 0
KTA1 031802Z 13010KT 34/16 A3007 RMK A01 T03420161  RH  034%=      5-min Rain = 0
KTA1 031803Z 15009KT 34/16 A3007 RMK A01 T03380160  RH  035%=      5-min Rain = 0
KTA1 031804Z 15009KT 34/16 A3007 RMK A01 T03390162  RH  035%=      5-min Rain = 0
KTA1 031805Z 14013G18KT 34/16 A3007 RMK A01 T03410159  RH  034%=      5-min Rain = 0
KTA1 031806Z 13013KT 34/16 A3008 RMK A01 T03440156  RH  033%=      5-min Rain = 0
KTA1 031807Z 14013KT 34/16 A3007 RMK A01 T03440156  RH  033%=      5-min Rain = 0
KTA1 031808Z 14013KT 34/16 A3008 RMK A01 T03430156  RH  033%=      5-min Rain = 0
KTA1 031809Z 12009KT 34/15 A3008 RMK A01 T03420154  RH  032%=      5-min Rain = 0
KTA1 031810Z 13010KT 34/15 A3007 RMK A01 T03420154  RH  033%=      5-min Rain = 0
KTA1 031811Z 13009KT 34/16 A3007 RMK A01 T03430155  RH  033%=      5-min Rain = 0
KTA1 031812Z 12010KT 35/16 A3007 RMK A01 T03460155  RH  032%=      5-min Rain = 0
KTA1 031813Z 14012KT 35/16 A3007 RMK A01 T03470155  RH  032%=      5-min Rain = 0
KTA1 031814Z 12016KT 35/15 A3007 RMK A01 T03500148  RH  030%=      5-min Rain = 0
KTA1 031815Z 13015KT 35/14 A3007 RMK A01 T03490144  RH  029%=      5-min Rain = 0
KTA1 031816Z 13013KT 35/15 A3007 RMK A01 T03480147  RH  030%=      5-min Rain = 0
KTA1 031817Z 11012KT 35/15 A3007 RMK A01 T03470148  RH  030%=      5-min Rain = 0
KTA1 031818Z 12010KT 35/15 A3007 RMK A01 T03450147  RH  031%=      5-min Rain = 0
KTA1 031819Z 12008KT 34/15 A3007 RMK A01 T03440147  RH  031%=      5-min Rain = 0
KTA1 031820Z 10007KT 34/15 A3007 RMK A01 T03430149  RH  031%=      5-min Rain = 0
KTA1 031821Z 11013KT 34/15 A3007 RMK A01 T03430150  RH  031%=      5-min Rain = 0
KTA1 031822Z 11014G19KT 34/15 A3007 RMK A01 T03430152  RH  032%=      5-min Rain = 0
KTA1 031823Z 13016G21KT 35/15 A3007 RMK A01 T03470153  RH  031%=      5-min Rain = 0
KTA1 031824Z 13014KT 35/15 A3007 RMK A01 T03490153  RH  031%=      5-min Rain = 0
KTA1 031825Z 11011KT 35/15 A3007 RMK A01 T03480148  RH  030%=      5-min Rain = 0
KTA1 031826Z 10013KT 35/15 A3007 RMK A01 T03480147  RH  030%=      5-min Rain = 0
KTA1 031827Z 10010KT 35/15 A3007 RMK A01 T03500149  RH  030%=      5-min Rain = 0
KTA1 031828Z 12013G18KT 35/15 A3007 RMK A01 T03520149  RH  030%=      5-min Rain = 0
KTA1 031829Z 13010KT 35/15 A3007 RMK A01 T03510149  RH  030%=      5-min Rain = 0
KTA1 031830Z 12007KT 35/15 A3007 RMK A01 T03470149  RH  031%=      5-min Rain = 0
KTA1 031831Z 11008KT 35/15 A3007 RMK A01 T03450149  RH  031%=      5-min Rain = 0
KTA1 031832Z 12008KT 34/15 A3006 RMK A01 T03440147  RH  031%=      5-min Rain = 0
KTA1 031833Z 12015KT 35/15 A3006 RMK A01 T03450146  RH  030%=      5-min Rain = 0
KTA1 031834Z 12015KT 35/14 A3006 RMK A01 T03490144  RH  029%=      5-min Rain = 0
KTA1 031835Z 12014KT 35/15 A3006 RMK A01 T03500145  RH  029%=      5-min Rain = 0
KTA1 031836Z 11014KT 35/14 A3006 RMK A01 T03500144  RH  029%=      5-min Rain = 0
KTA1 031837Z 12015KT 35/15 A3006 RMK A01 T03500145  RH  029%=      5-min Rain = 0
KTA1 031838Z 12012G17KT 35/14 A3006 RMK A01 T03500143  RH  029%=      5-min Rain = 0
KTA1 031839Z 12012KT 35/14 A3006 RMK A01 T03480144  RH  029%=      5-min Rain = 0
KTA1 031840Z 14010KT 35/14 A3006 RMK A01 T03490144  RH  029%=      5-min Rain = 0
KTA1 031841Z 16007KT 35/14 A3006 RMK A01 T03530141  RH  028%=      5-min Rain = 0
KTA1 031842Z 17007KT 36/14 A3006 RMK A01 T03570142  RH  028%=      5-min Rain = 0
KTA1 031843Z 17008KT 35/14 A3006 RMK A01 T03530140  RH  028%=      5-min Rain = 0
KTA1 031844Z 14011KT 35/14 A3006 RMK A01 T03490141  RH  029%=      5-min Rain = 0
KTA1 031845Z 14007KT 35/15 A3006 RMK A01 T03480145  RH  030%=      5-min Rain = 0
KTA1 031846Z 13005KT 35/15 A3006 RMK A01 T03450147  RH  030%=      5-min Rain = 0
KTA1 031847Z 10008KT 34/15 A3006 RMK A01 T03440146  RH  031%=      5-min Rain = 0
KTA1 031848Z 12015KT 35/14 A3006 RMK A01 T03480142  RH  029%=      5-min Rain = 0
KTA1 031849Z 11014KT 35/14 A3006 RMK A01 T03530139  RH  028%=      5-min Rain = 0
KTA1 031850Z 11013KT 35/14 A3006 RMK A01 T03540136  RH  027%=      5-min Rain = 0
KTA1 031851Z 11013KT 35/14 A3006 RMK A01 T03540136  RH  027%=      5-min Rain = 0
KTA1 031852Z 13010G15KT 36/14 A3006 RMK A01 T03550136  RH  027%=      5-min Rain = 0
KTA1 031853Z 12010G19KT 35/14 A3005 RMK A01 T03520136  RH  027%=      5-min Rain = 0
KTA1 031854Z 11014KT 35/13 A3005 RMK A01 T03530134  RH  027%=      5-min Rain = 0
KTA1 031855Z 12013KT 36/13 A3005 RMK A01 T03550133  RH  026%=      5-min Rain = 0
KTA1 031856Z 12012G17KT 36/13 A3005 RMK A01 T03560131  RH  026%=      5-min Rain = 0
KTA1 031857Z 11012KT 36/13 A3005 RMK A01 T03560132  RH  026%=      5-min Rain = 0
KTA1 031858Z 11014G19KT 36/13 A3005 RMK A01 T03550131  RH  026%=      5-min Rain = 0
KTA1 031859Z 11010KT 35/13 A3005 RMK A01 T03540134  RH  027%=      5-min Rain = 0
KTA1 031900Z 11008KT 35/14 A3005 RMK A01 T03500135  RH  027%=      5-min Rain = 0
KTA1 031901Z 11009KT 35/14 A3005 RMK A01 T03500136  RH  028%=      5-min Rain = 0
KTA1 031902Z 14013G18KT 35/14 A3005 RMK A01 T03500136  RH  028%=      5-min Rain = 0
KTA1 031903Z 12015KT 36/14 A3005 RMK A01 T03550136  RH  027%=      5-min Rain = 0
KTA1 031904Z 11010KT 36/14 A3005 RMK A01 T03570137  RH  027%=      5-min Rain = 0
KTA1 031905Z 13011KT 36/14 A3005 RMK A01 T03550137  RH  027%=      5-min Rain = 0
KTA1 031906Z 13014G19KT 36/13 A3005 RMK A01 T03550132  RH  026%=      5-min Rain = 0
KTA1 031907Z 13016KT 36/12 A3005 RMK A01 T03580123  RH  024%=      5-min Rain = 0
KTA1 031908Z 12012G17KT 36/12 A3005 RMK A01 T03580115  RH  023%=      5-min Rain = 0
KTA1 031909Z 12015G21KT 36/12 A3005 RMK A01 T03570117  RH  023%=      5-min Rain = 0
KTA1 031910Z 15013KT 36/13 A3005 RMK A01 T03600126  RH  024%=      5-min Rain = 0
KTA1 031911Z 15012G17KT 36/13 A3005 RMK A01 T03610131  RH  025%=      5-min Rain = 0
KTA1 031912Z 15014KT 36/13 A3005 RMK A01 T03580133  RH  026%=      5-min Rain = 0
KTA1 031913Z 14010KT 36/13 A3005 RMK A01 T03560134  RH  026%=      5-min Rain = 0
KTA1 031914Z 14008KT 35/14 A3005 RMK A01 T03540135  RH  027%=      5-min Rain = 0
KTA1 031915Z 15008KT 36/13 A3005 RMK A01 T03550134  RH  027%=      5-min Rain = 0
KTA1 031916Z 16006KT 36/14 A3005 RMK A01 T03560135  RH  026%=      5-min Rain = 0
KTA1 031917Z 14009KT 36/14 A3005 RMK A01 T03590136  RH  026%=      5-min Rain = 0
KTA1 031918Z 11011KT 36/13 A3005 RMK A01 T03610134  RH  026%=      5-min Rain = 0
KTA1 031919Z 08009G15KT 36/13 A3004 RMK A01 T03610129  RH  025%=      5-min Rain = 0
KTA1 031920Z 10007KT 36/13 A3004 RMK A01 T03580128  RH  025%=      5-min Rain = 0
KTA1 031921Z 10011KT 36/13 A3005 RMK A01 T03580128  RH  025%=      5-min Rain = 0
KTA1 031922Z 10010KT 36/13 A3004 RMK A01 T03550127  RH  025%=      5-min Rain = 0
KTA1 031923Z 09009KT 35/13 A3004 RMK A01 T03520128  RH  026%=      5-min Rain = 0
KTA1 031924Z 10010KT 35/13 A3004 RMK A01 T03500128  RH  026%=      5-min Rain = 0
KTA1 031925Z 11010KT 35/13 A3004 RMK A01 T03500128  RH  026%=      5-min Rain = 0
KTA1 031926Z 14008KT 35/13 A3004 RMK A01 T03520127  RH  026%=      5-min Rain = 0
KTA1 031927Z 15010KT 35/12 A3004 RMK A01 T03540120  RH  024%=      5-min Rain = 0
KTA1 031928Z 15009G16KT 36/12 A3004 RMK A01 T03590124  RH  024%=      5-min Rain = 0
KTA1 031929Z 15015KT 37/13 A3004 RMK A01 T03650128  RH  024%=      5-min Rain = 0
KTA1 031930Z 16009KT 37/13 A3004 RMK A01 T03650130  RH  024%=      5-min Rain = 0
KTA1 031931Z 16009KT 36/13 A3004 RMK A01 T03620128  RH  025%=      5-min Rain = 0
KTA1 031932Z 14012KT 36/13 A3004 RMK A01 T03600130  RH  025%=      5-min Rain = 0
KTA1 031933Z 14010KT 36/13 A3004 RMK A01 T03630128  RH  025%=      5-min Rain = 0
KTA1 031934Z 13008KT 36/13 A3004 RMK A01 T03610128  RH  025%=      5-min Rain = 0
KTA1 031935Z 12009KT 36/13 A3004 RMK A01 T03560128  RH  025%=      5-min Rain = 0
KTA1 031936Z 15014G21KT 36/13 A3004 RMK A01 T03550130  RH  026%=      5-min Rain = 0
KTA1 031937Z 15013KT 36/13 A3004 RMK A01 T03600133  RH  026%=      5-min Rain = 0
KTA1 031938Z 15012KT 36/13 A3004 RMK A01 T03640133  RH  025%=      5-min Rain = 0
KTA1 031939Z 16012KT 36/13 A3004 RMK A01 T03640132  RH  025%=      5-min Rain = 0
KTA1 031940Z 15012KT 36/13 A3004 RMK A01 T03630131  RH  025%=      5-min Rain = 0
KTA1 031941Z 13009KT 36/13 A3004 RMK A01 T03640131  RH  025%=      5-min Rain = 0
KTA1 031942Z 11014KT 36/13 A3004 RMK A01 T03630126  RH  024%=      5-min Rain = 0
KTA1 031943Z 10015KT 36/13 A3004 RMK A01 T03630127  RH  024%=      5-min Rain = 0
KTA1 031944Z 11011KT 36/13 A3004 RMK A01 T03620127  RH  024%=      5-min Rain = 0
KTA1 031945Z 10011KT 36/13 A3003 RMK A01 T03620127  RH  025%=      5-min Rain = 0
KTA1 031946Z 09010KT 36/13 A3003 RMK A01 T03600126  RH  025%=      5-min Rain = 0
KTA1 031947Z 10006KT 36/13 A3003 RMK A01 T03580125  RH  025%=      5-min Rain = 0
KTA1 031948Z 10011KT 36/13 A3003 RMK A01 T03570126  RH  025%=      5-min Rain = 0
KTA1 031949Z 11012KT 36/13 A3003 RMK A01 T03600128  RH  025%=      5-min Rain = 0
KTA1 031950Z 12014G22KT 36/13 A3003 RMK A01 T03610129  RH  025%=      5-min Rain = 0
KTA1 031951Z 10015KT 36/13 A3003 RMK A01 T03620127  RH  024%=      5-min Rain = 0
KTA1 031952Z 11016G21KT 36/13 A3003 RMK A01 T03610126  RH  024%=      5-min Rain = 0
KTA1 031953Z 12012G18KT 36/13 A3003 RMK A01 T03590125  RH  025%=      5-min Rain = 0
KTA1 031954Z 12014KT 36/13 A3003 RMK A01 T03590126  RH  025%=      5-min Rain = 0
KTA1 031955Z 13012KT 36/13 A3003 RMK A01 T03590126  RH  025%=      5-min Rain = 0
KTA1 031956Z 09009KT 36/13 A3003 RMK A01 T03610126  RH  024%=      5-min Rain = 0
KTA1 031957Z 10009KT 36/12 A3003 RMK A01 T03610124  RH  024%=      5-min Rain = 0
KTA1 031958Z 11009G14KT 36/12 A3003 RMK A01 T03610124  RH  024%=      5-min Rain = 0
KTA1 031959Z 11009KT 36/13 A3003 RMK A01 T03620125  RH  024%=      5-min Rain = 0
KTA1 032000Z 13012KT 36/12 A3003 RMK A01 T03620123  RH  024%=      5-min Rain = 0
KTA1 032001Z 12011G19KT 36/13 A3003 RMK A01 T03620125  RH  024%=      5-min Rain = 0
KTA1 032002Z 12020KT 36/13 A3003 RMK A01 T03600128  RH  025%=      5-min Rain = 0
KTA1 032003Z 13015KT 36/13 A3003 RMK A01 T03610130  RH  025%=      5-min Rain = 0
KTA1 032004Z 13013KT 36/13 A3003 RMK A01 T03620130  RH  025%=      5-min Rain = 0
KTA1 032005Z 14009KT 36/13 A3003 RMK A01 T03610131  RH  025%=      5-min Rain = 0
KTA1 032006Z 13009KT 36/13 A3003 RMK A01 T03610130  RH  025%=      5-min Rain = 0
KTA1 032007Z 10009KT 36/13 A3003 RMK A01 T03610131  RH  025%=      5-min Rain = 0
KTA1 032008Z 08011KT 36/13 A3003 RMK A01 T03620130  RH  025%=      5-min Rain = 0
KTA1 032009Z 09013KT 36/13 A3003 RMK A01 T03630129  RH  025%=      5-min Rain = 0
KTA1 032010Z 11015KT 36/13 A3003 RMK A01 T03640128  RH  024%=      5-min Rain = 0
KTA1 032011Z 14018KT 37/13 A3003 RMK A01 T03650126  RH  024%=      5-min Rain = 0
KTA1 032012Z 15012KT 36/13 A3003 RMK A01 T03630126  RH  024%=      5-min Rain = 0
KTA1 032013Z 15008G13KT 36/13 A3003 RMK A01 T03620126  RH  024%=      5-min Rain = 0
KTA1 032014Z 14010KT 36/13 A3003 RMK A01 T03620127  RH  024%=      5-min Rain = 0
KTA1 032015Z 12011KT 36/13 A3003 RMK A01 T03640126  RH  024%=      5-min Rain = 0
KTA1 032016Z 12010KT 37/13 A3003 RMK A01 T03650126  RH  024%=      5-min Rain = 0
KTA1 032017Z 12008KT 36/12 A3003 RMK A01 T03630124  RH  024%=      5-min Rain = 0
KTA1 032018Z 12011KT 36/12 A3003 RMK A01 T03600124  RH  024%=      5-min Rain = 0
KTA1 032019Z 13014KT 36/12 A3002 RMK A01 T03610124  RH  024%=      5-min Rain = 0
KTA1 032020Z 13008G16KT 36/12 A3002 RMK A01 T03630121  RH  023%=      5-min Rain = 0
KTA1 032021Z 12006G12KT 36/12 A3002 RMK A01 T03600122  RH  024%=      5-min Rain = 0
KTA1 032022Z 11013KT 36/12 A3002 RMK A01 T03630122  RH  024%=      5-min Rain = 0
KTA1 032023Z 11012KT 36/12 A3002 RMK A01 T03640120  RH  023%=      5-min Rain = 0
KTA1 032024Z 12011KT 36/12 A3002 RMK A01 T03640120  RH  023%=      5-min Rain = 0
KTA1 032025Z 13010KT 36/12 A3002 RMK A01 T03640121  RH  023%=      5-min Rain = 0
KTA1 032026Z 13011G20KT 36/12 A3002 RMK A01 T03630121  RH  023%=      5-min Rain = 0
KTA1 032027Z 14015KT 36/12 A3002 RMK A01 T03630121  RH  023%=      5-min Rain = 0
KTA1 032028Z 15012KT 37/12 A3002 RMK A01 T03650121  RH  023%=      5-min Rain = 0
KTA1 032029Z 17009KT 36/12 A3002 RMK A01 T03640120  RH  023%=      5-min Rain = 0
KTA1 032030Z 15009KT 36/12 A3002 RMK A01 T03630120  RH  023%=      5-min Rain = 0
KTA1 032031Z 15008G13KT 37/12 A3002 RMK A01 T03650120  RH  023%=      5-min Rain = 0
KTA1 032032Z 15011KT 37/12 A3002 RMK A01 T03700121  RH  022%=      5-min Rain = 0
KTA1 032033Z 15012KT 38/12 A3002 RMK A01 T03750119  RH  022%=      5-min Rain = 0
KTA1 032034Z 15012KT 37/12 A3002 RMK A01 T03740118  RH  022%=      5-min Rain = 0
KTA1 032035Z 17011KT 37/11 A3002 RMK A01 T03730114  RH  021%=      5-min Rain = 0
KTA1 032036Z 16010G15KT 37/11 A3002 RMK A01 T03690112  RH  021%=      5-min Rain = 0
KTA1 032037Z 15014KT 37/12 A3002 RMK A01 T03670115  RH  022%=      5-min Rain = 0
KTA1 032038Z 15011KT 37/12 A3002 RMK A01 T03660117  RH  022%=      5-min Rain = 0
KTA1 032039Z 15011KT 37/12 A3002 RMK A01 T03650115  RH  022%=      5-min Rain = 0
KTA1 032040Z 16008KT 36/12 A3002 RMK A01 T03640115  RH  022%=      5-min Rain = 0
KTA1 032041Z 13012KT 36/12 A3002 RMK A01 T03640116  RH  022%=      5-min Rain = 0
KTA1 032042Z 13010KT 37/12 A3002 RMK A01 T03670120  RH  023%=      5-min Rain = 0
KTA1 032043Z 13012G17KT 37/12 A3002 RMK A01 T03690122  RH  023%=      5-min Rain = 0
KTA1 032044Z 13012KT 37/13 A3002 RMK A01 T03690126  RH  023%=      5-min Rain = 0
KTA1 032045Z 12009KT 37/13 A3002 RMK A01 T03680127  RH  024%=      5-min Rain = 0
KTA1 032046Z 14011KT 37/13 A3002 RMK A01 T03670128  RH  024%=      5-min Rain = 0
KTA1 032047Z 15011KT 37/13 A3002 RMK A01 T03680128  RH  024%=      5-min Rain = 0
KTA1 032048Z 14012G17KT 37/13 A3002 RMK A01 T03660128  RH  024%=      5-min Rain = 0
KTA1 032049Z 15006KT 37/13 A3002 RMK A01 T03660127  RH  024%=      5-min Rain = 0
KTA1 032050Z 15007KT 37/13 A3001 RMK A01 T03670128  RH  024%=      5-min Rain = 0
KTA1 032051Z 16009KT 37/13 A3001 RMK A01 T03670127  RH  024%=      5-min Rain = 0
KTA1 032052Z 15011G16KT 36/13 A3001 RMK A01 T03630125  RH  024%=      5-min Rain = 0
KTA1 032053Z 15014KT 36/12 A3001 RMK A01 T03630124  RH  024%=      5-min Rain = 0
KTA1 032054Z 15008KT 36/12 A3001 RMK A01 T03630123  RH  024%=      5-min Rain = 0
KTA1 032055Z 14009KT 36/12 A3001 RMK A01 T03630123  RH  024%=      5-min Rain = 0
KTA1 032056Z 14013G18KT 37/12 A3001 RMK A01 T03650123  RH  023%=      5-min Rain = 0
KTA1 032057Z 11011KT 37/12 A3001 RMK A01 T03680121  RH  023%=      5-min Rain = 0
KTA1 032058Z 10009KT 37/12 A3001 RMK A01 T03670119  RH  023%=      5-min Rain = 0
KTA1 032059Z 09007KT 37/12 A3001 RMK A01 T03650119  RH  023%=      5-min Rain = 0
KTA1 032100Z 10006KT 37/12 A3001 RMK A01 T03650119  RH  023%=      5-min Rain = 0
KTA1 032101Z 13010G17KT 37/12 A3001 RMK A01 T03670121  RH  023%=      5-min Rain = 0
KTA1 032102Z 15014G19KT 37/12 A3001 RMK A01 T03690120  RH  022%=      5-min Rain = 0
KTA1 032103Z 15014KT 37/12 A3001 RMK A01 T03700120  RH  022%=      5-min Rain = 0
KTA1 032104Z 17011KT 37/12 A3001 RMK A01 T03710120  RH  022%=      5-min Rain = 0
KTA1 032105Z 16009KT 37/12 A3001 RMK A01 T03690120  RH  023%=      5-min Rain = 0
KTA1 032106Z 15010KT 37/12 A3001 RMK A01 T03670121  RH  023%=      5-min Rain = 0
KTA1 032107Z 11015KT 37/12 A3001 RMK A01 T03690122  RH  023%=      5-min Rain = 0
KTA1 032108Z 10012KT 37/12 A3001 RMK A01 T03690121  RH  023%=      5-min Rain = 0
KTA1 032109Z 10011KT 37/12 A3001 RMK A01 T03670120  RH  023%=      5-min Rain = 0
KTA1 032110Z 10008G14KT 37/12 A3001 RMK A01 T03660120  RH  023%=      5-min Rain = 0
KTA1 032111Z 11008KT 37/12 A3001 RMK A01 T03660120  RH  023%=      5-min Rain = 0
KTA1 032112Z 13016KT 37/12 A3001 RMK A01 T03670120  RH  023%=      5-min Rain = 0
KTA1 032113Z 12013KT 37/12 A3001 RMK A01 T03670119  RH  023%=      5-min Rain = 0
KTA1 032114Z 13012KT 37/12 A3001 RMK A01 T03660119  RH  023%=      5-min Rain = 0
KTA1 032115Z 12014KT 37/12 A3001 RMK A01 T03650120  RH  023%=      5-min Rain = 0
KTA1 032116Z 13010KT 36/12 A3001 RMK A01 T03640120  RH  023%=      5-min Rain = 0
KTA1 032117Z 14014KT 37/12 A3001 RMK A01 T03650124  RH  024%=      5-min Rain = 0
KTA1 032118Z 15012KT 37/13 A3001 RMK A01 T03670126  RH  024%=      5-min Rain = 0
KTA1 032119Z 16011KT 37/13 A3001 RMK A01 T03690125  RH  023%=      5-min Rain = 0
KTA1 032120Z 18008KT 37/12 A3001 RMK A01 T03690122  RH  023%=      5-min Rain = 0
KTA1 032121Z 15007G12KT 37/13 A30 RMK A01 T03660125  RH  024%=      5-min Rain = 0
KTA1 032122Z 14010KT 37/13 A30 RMK A01 T03660127  RH  024%=      5-min Rain = 0
KTA1 032123Z 14013KT 37/13 A30 RMK A01 T03700128  RH  024%=      5-min Rain = 0
KTA1 032124Z 15010KT 37/13 A3001 RMK A01 T03730126  RH  023%=      5-min Rain = 0
KTA1 032125Z 14010KT 37/13 A3001 RMK A01 T03730126  RH  023%=      5-min Rain = 0
KTA1 032126Z 13007KT 37/12 A30 RMK A01 T03700124  RH  023%=      5-min Rain = 0
KTA1 032127Z 14006KT 37/12 A30 RMK A01 T03670123  RH  023%=      5-min Rain = 0
KTA1 032128Z 14006KT 37/12 A30 RMK A01 T03660124  RH  023%=      5-min Rain = 0
KTA1 032129Z 12009KT 37/13 A30 RMK A01 T03670125  RH  023%=      5-min Rain = 0
KTA1 032130Z 10011KT 37/12 A30 RMK A01 T03690124  RH  023%=      5-min Rain = 0
KTA1 032131Z 11011KT 37/13 A30 RMK A01 T03710125  RH  023%=      5-min Rain = 0
KTA1 032132Z 12012KT 37/13 A30 RMK A01 T03700125  RH  023%=      5-min Rain = 0
KTA1 032133Z 11006KT 37/13 A30 RMK A01 T03700125  RH  023%=      5-min Rain = 0
KTA1 032134Z 14005G10KT 37/12 A30 RMK A01 T03670124  RH  023%=      5-min Rain = 0
KTA1 032135Z 15011G17KT 37/13 A30 RMK A01 T03680127  RH  024%=      5-min Rain = 0
KTA1 032136Z 13011KT 37/13 A30 RMK A01 T03720126  RH  023%=      5-min Rain = 0
KTA1 032137Z 13009G14KT 37/13 A30 RMK A01 T03730125  RH  023%=      5-min Rain = 0
KTA1 032138Z 13011KT 37/13 A30 RMK A01 T03720126  RH  023%=      5-min Rain = 0
KTA1 032139Z 14012KT 37/13 A30 RMK A01 T03710126  RH  023%=      5-min Rain = 0
KTA1 032140Z 14012KT 37/13 A30 RMK A01 T03720127  RH  023%=      5-min Rain = 0
KTA1 032141Z 14009KT 37/13 A30 RMK A01 T03730126  RH  023%=      5-min Rain = 0
KTA1 032142Z 14005KT 37/13 A30 RMK A01 T03720125  RH  023%=      5-min Rain = 0
KTA1 032143Z 15005KT 37/13 A30 RMK A01 T03700125  RH  023%=      5-min Rain = 0
KTA1 032144Z 14010KT 37/13 A30 RMK A01 T03700127  RH  023%=      5-min Rain = 0
KTA1 032145Z 12010KT 37/13 A30 RMK A01 T03710126  RH  023%=      5-min Rain = 0
KTA1 032146Z 11015KT 37/13 A30 RMK A01 T03720125  RH  023%=      5-min Rain = 0
KTA1 032147Z 12012KT 37/13 A30 RMK A01 T03720125  RH  023%=      5-min Rain = 0
KTA1 032148Z 12007KT 37/13 A30 RMK A01 T03720126  RH  023%=      5-min Rain = 0
KTA1 032149Z 11005KT 37/13 A30 RMK A01 T03720125  RH  023%=      5-min Rain = 0
KTA1 032150Z 13003KT 37/12 A30 RMK A01 T03660124  RH  023%=      5-min Rain = 0
KTA1 032151Z 06003KT 37/12 A30 RMK A01 T03650124  RH  024%=      5-min Rain = 0
KTA1 032152Z 06003KT 36/12 A30 RMK A01 T03630124  RH  024%=      5-min Rain = 0
KTA1 032153Z 13005KT 36/12 A30 RMK A01 T03620124  RH  024%=      5-min Rain = 0
KTA1 032154Z 13011G17KT 37/13 A30 RMK A01 T03650126  RH  024%=      5-min Rain = 0
KTA1 032155Z 12014KT 37/13 A30 RMK A01 T03690125  RH  023%=      5-min Rain = 0
KTA1 032156Z 14011KT 37/13 A30 RMK A01 T03700125  RH  023%=      5-min Rain = 0
KTA1 032157Z 15009KT 37/13 A30 RMK A01 T03710125  RH  023%=      5-min Rain = 0
KTA1 032158Z 15009KT 37/13 A30 RMK A01 T03690125  RH  023%=      5-min Rain = 0
KTA1 032159Z 17006KT 37/12 A30 RMK A01 T03680124  RH  023%=      5-min Rain = 0
KTA1 032200Z 21003KT 37/12 A2999 RMK A01 T03650123  RH  023%=      5-min Rain = 0
KTA1 032201Z 18003KT 36/12 A2999 RMK A01 T03640123  RH  024%=      5-min Rain = 0
KTA1 032202Z 12009G15KT 36/12 A30 RMK A01 T03640124  RH  024%=      5-min Rain = 0
KTA1 032203Z 11011KT 37/12 A30 RMK A01 T03670124  RH  023%=      5-min Rain = 0
KTA1 032204Z 13009KT 37/12 A2999 RMK A01 T03690124  RH  023%=      5-min Rain = 0
KTA1 032205Z 11007KT 37/12 A2999 RMK A01 T03690124  RH  023%=      5-min Rain = 0
KTA1 032206Z 10007KT 37/13 A2999 RMK A01 T03690125  RH  023%=      5-min Rain = 0
KTA1 032207Z 11010G15KT 37/13 A2999 RMK A01 T03700125  RH  023%=      5-min Rain = 0
KTA1 032208Z 10011KT 37/12 A2999 RMK A01 T03700124  RH  023%=      5-min Rain = 0
KTA1 032209Z 12009G16KT 37/12 A2999 RMK A01 T03720124  RH  023%=      5-min Rain = 0
KTA1 032210Z 13013KT 37/12 A2999 RMK A01 T03740124  RH  022%=      5-min Rain = 0
KTA1 032211Z 13010KT 37/12 A2999 RMK A01 T03730124  RH  023%=      5-min Rain = 0
KTA1 032212Z 13009KT 37/12 A2999 RMK A01 T03720123  RH  022%=      5-min Rain = 0
KTA1 032213Z 13008KT 37/12 A2999 RMK A01 T03700124  RH  023%=      5-min Rain = 0
KTA1 032214Z 15007KT 37/12 A2999 RMK A01 T03690124  RH  023%=      5-min Rain = 0
KTA1 032215Z 11009KT 37/12 A2999 RMK A01 T03700124  RH  023%=      5-min Rain = 0
KTA1 032216Z 12003KT 37/12 A2999 RMK A01 T03670121  RH  023%=      5-min Rain = 0
KTA1 032217Z 10004KT 36/12 A2999 RMK A01 T03640122  RH  023%=      5-min Rain = 0
KTA1 032218Z 11006KT 36/12 A2999 RMK A01 T03640123  RH  023%=      5-min Rain = 0
KTA1 032219Z 10006KT 37/12 A2999 RMK A01 T03660124  RH  023%=      5-min Rain = 0
KTA1 032220Z 11008KT 37/12 A2999 RMK A01 T03680124  RH  023%=      5-min Rain = 0
KTA1 032221Z 12012KT 37/12 A2999 RMK A01 T03690124  RH  023%=      5-min Rain = 0
KTA1 032222Z 11009KT 37/12 A2999 RMK A01 T03700123  RH  023%=      5-min Rain = 0
KTA1 032223Z 14011KT 37/13 A2999 RMK A01 T03710125  RH  023%=      5-min Rain = 0
KTA1 032224Z 14014KT 37/12 A2999 RMK A01 T03720124  RH  023%=      5-min Rain = 0
KTA1 032225Z 15012KT 37/12 A2999 RMK A01 T03730124  RH  023%=      5-min Rain = 0
KTA1 032226Z 15012KT 37/12 A2999 RMK A01 T03720124  RH  023%=      5-min Rain = 0
KTA1 032227Z 16011KT 37/12 A2999 RMK A01 T03720124  RH  023%=      5-min Rain = 0
KTA1 032228Z 13012KT 37/12 A2999 RMK A01 T03720124  RH  023%=      5-min Rain = 0
KTA1 032229Z 12012KT 37/12 A2999 RMK A01 T03710122  RH  023%=      5-min Rain = 0
KTA1 032230Z 13013KT 37/12 A2999 RMK A01 T03700122  RH  023%=      5-min Rain = 0
KTA1 032231Z 13011KT 37/12 A2999 RMK A01 T03680121  RH  023%=      5-min Rain = 0
KTA1 032232Z 13009KT 37/12 A2998 RMK A01 T03660121  RH  023%=      5-min Rain = 0
KTA1 032233Z 12009KT 37/12 A2998 RMK A01 T03660121  RH  023%=      5-min Rain = 0
KTA1 032234Z 10010G15KT 37/12 A2998 RMK A01 T03670121  RH  023%=      5-min Rain = 0
KTA1 032235Z 14014KT 37/12 A2998 RMK A01 T03700122  RH  023%=      5-min Rain = 0
KTA1 032236Z 15011KT 37/12 A2998 RMK A01 T03720122  RH  022%=      5-min Rain = 0
KTA1 032237Z 15006KT 37/12 A2998 RMK A01 T03730123  RH  022%=      5-min Rain = 0
KTA1 032238Z 16006G11KT 37/12 A2998 RMK A01 T03710122  RH  023%=      5-min Rain = 0
KTA1 032239Z 17011KT 37/12 A2998 RMK A01 T03700123  RH  023%=      5-min Rain = 0
KTA1 032240Z 17010KT 37/12 A2998 RMK A01 T03700122  RH  023%=      5-min Rain = 0
KTA1 032241Z 16009KT 37/12 A2998 RMK A01 T03700122  RH  023%=      5-min Rain = 0
KTA1 032242Z 18006KT 37/12 A2998 RMK A01 T03700121  RH  022%=      5-min Rain = 0
KTA1 032243Z 16006KT 37/12 A2998 RMK A01 T03680121  RH  023%=      5-min Rain = 0
KTA1 032244Z 17004KT 37/12 A2998 RMK A01 T03670122  RH  023%=      5-min Rain = 0
KTA1 032245Z 16007KT 37/12 A2998 RMK A01 T03680122  RH  023%=      5-min Rain = 0
KTA1 032246Z 16006KT 37/12 A2998 RMK A01 T03690120  RH  023%=      5-min Rain = 0
KTA1 032247Z 15009KT 37/12 A2998 RMK A01 T03670121  RH  023%=      5-min Rain = 0
KTA1 032248Z 14011KT 37/12 A2998 RMK A01 T03670119  RH  023%=      5-min Rain = 0
KTA1 032249Z 15012KT 37/12 A2998 RMK A01 T03680119  RH  023%=      5-min Rain = 0
KTA1 032250Z 13010KT 37/12 A2998 RMK A01 T03690120  RH  022%=      5-min Rain = 0
KTA1 032251Z 11011KT 37/12 A2998 RMK A01 T03690119  RH  022%=      5-min Rain = 0
KTA1 032252Z 11010KT 37/12 A2998 RMK A01 T03670117  RH  022%=      5-min Rain = 0
KTA1 032253Z 11009KT 37/12 A2998 RMK A01 T03670117  RH  022%=      5-min Rain = 0
KTA1 032254Z 11007KT 37/12 A2997 RMK A01 T03670117  RH  022%=      5-min Rain = 0
KTA1 032255Z 11010KT 37/12 A2997 RMK A01 T03670118  RH  022%=      5-min Rain = 0
KTA1 032256Z 11010KT 37/12 A2997 RMK A01 T03690118  RH  022%=      5-min Rain = 0
KTA1 032257Z 10008KT 37/12 A2997 RMK A01 T03690118  RH  022%=      5-min Rain = 0
KTA1 032258Z 10006KT 37/12 A2997 RMK A01 T03670118  RH  022%=      5-min Rain = 0
KTA1 032259Z 11008KT 37/12 A2997 RMK A01 T03670117  RH  022%=      5-min Rain = 0
KTA1 032300Z 12007KT 37/12 A2997 RMK A01 T03670117  RH  022%=      5-min Rain = 0
KTA1 032301Z 12009G15KT 37/12 A2997 RMK A01 T03670117  RH  022%=      5-min Rain = 0
KTA1 032302Z 13013KT 37/12 A2997 RMK A01 T03670118  RH  022%=      5-min Rain = 0
KTA1 032303Z 13013KT 37/12 A2997 RMK A01 T03680118  RH  022%=      5-min Rain = 0
KTA1 032304Z 13009KT 37/12 A2997 RMK A01 T03700119  RH  022%=      5-min Rain = 0
KTA1 032305Z 11010G15KT 37/12 A2997 RMK A01 T03690119  RH  022%=      5-min Rain = 0
KTA1 032306Z 12012KT 37/12 A2997 RMK A01 T03690119  RH  022%=      5-min Rain = 0
KTA1 032307Z 12011KT 37/12 A2997 RMK A01 T03690120  RH  022%=      5-min Rain = 0
KTA1 032308Z 13011KT 37/12 A2997 RMK A01 T03690120  RH  022%=      5-min Rain = 0
KTA1 032309Z 14011KT 37/12 A2997 RMK A01 T03700120  RH  022%=      5-min Rain = 0
KTA1 032310Z 14012KT 37/12 A2997 RMK A01 T03700120  RH  022%=      5-min Rain = 0
KTA1 032311Z 15011KT 37/12 A2997 RMK A01 T03700119  RH  022%=      5-min Rain = 0
KTA1 032312Z 15011G16KT 37/12 A2997 RMK A01 T03690119  RH  022%=      5-min Rain = 0
KTA1 032313Z 14008KT 37/12 A2997 RMK A01 T03690119  RH  022%=      5-min Rain = 0
KTA1 032314Z 12009KT 37/12 A2997 RMK A01 T03710120  RH  022%=      5-min Rain = 0
KTA1 032315Z 13013KT 37/12 A2997 RMK A01 T03730118  RH  022%=      5-min Rain = 0
KTA1 032316Z 14012KT 37/12 A2997 RMK A01 T03720120  RH  022%=      5-min Rain = 0
KTA1 032317Z 13010KT 37/12 A2997 RMK A01 T03730121  RH  022%=      5-min Rain = 0
KTA1 032318Z 14013KT 37/12 A2997 RMK A01 T03730120  RH  022%=      5-min Rain = 0
KTA1 032319Z 14013KT 37/12 A2997 RMK A01 T03730119  RH  022%=      5-min Rain = 0
KTA1 032320Z 15012KT 37/12 A2997 RMK A01 T03690118  RH  022%=      5-min Rain = 0
KTA1 032321Z 16010KT 37/12 A2997 RMK A01 T03680119  RH  023%=      5-min Rain = 0
KTA1 032322Z 16007KT 37/12 A2997 RMK A01 T03690120  RH  022%=      5-min Rain = 0
KTA1 032323Z 15007KT 37/12 A2997 RMK A01 T03690120  RH  022%=      5-min Rain = 0
KTA1 032324Z 13010KT 37/12 A2997 RMK A01 T03680119  RH  022%=      5-min Rain = 0
KTA1 032325Z 12010KT 37/12 A2997 RMK A01 T03690118  RH  022%=      5-min Rain = 0
KTA1 032326Z 12007KT 37/12 A2997 RMK A01 T03660118  RH  022%=      5-min Rain = 0
KTA1 032327Z 12008KT 37/12 A2997 RMK A01 T03660119  RH  023%=      5-min Rain = 0
KTA1 032328Z 13005KT 36/12 A2997 RMK A01 T03640118  RH  023%=      5-min Rain = 0
KTA1 032329Z 14004KT 36/12 A2997 RMK A01 T03630119  RH  023%=      5-min Rain = 0
KTA1 032330Z 12006KT 36/12 A2997 RMK A01 T03630119  RH  023%=      5-min Rain = 0
KTA1 032331Z 15013KT 36/12 A2997 RMK A01 T03640119  RH  023%=      5-min Rain = 0
KTA1 032332Z 14012KT 37/12 A2997 RMK A01 T03660121  RH  023%=      5-min Rain = 0
KTA1 032333Z 15012KT 37/12 A2997 RMK A01 T03680121  RH  023%=      5-min Rain = 0
KTA1 032334Z 15014KT 37/12 A2997 RMK A01 T03690120  RH  022%=      5-min Rain = 0
KTA1 032335Z 15013KT 37/12 A2997 RMK A01 T03670118  RH  022%=      5-min Rain = 0
KTA1 032336Z 13012KT 37/12 A2997 RMK A01 T03650118  RH  023%=      5-min Rain = 0
KTA1 032337Z 12010KT 37/12 A2997 RMK A01 T03650118  RH  023%=      5-min Rain = 0
KTA1 032338Z 12010KT 37/12 A2997 RMK A01 T03660118  RH  023%=      5-min Rain = 0
KTA1 032339Z 12006KT 36/12 A2997 RMK A01 T03640117  RH  023%=      5-min Rain = 0
KTA1 032340Z 17005KT 36/12 A2996 RMK A01 T03630119  RH  023%=      5-min Rain = 0
KTA1 032341Z 17005KT 36/12 A2996 RMK A01 T03640118  RH  023%=      5-min Rain = 0
KTA1 032342Z 14007KT 37/12 A2996 RMK A01 T03650119  RH  023%=      5-min Rain = 0
KTA1 032343Z 14007KT 37/12 A2996 RMK A01 T03670118  RH  022%=      5-min Rain = 0
KTA1 032344Z 15007KT 37/12 A2996 RMK A01 T03680118  RH  022%=      5-min Rain = 0
KTA1 032345Z 15010KT 37/12 A2996 RMK A01 T03690120  RH  022%=      5-min Rain = 0
KTA1 032346Z 15012KT 37/12 A2996 RMK A01 T03690120  RH  022%=      5-min Rain = 0
KTA1 032347Z 14009KT 37/12 A2996 RMK A01 T03660119  RH  023%=      5-min Rain = 0
KTA1 032348Z 12008KT 37/12 A2996 RMK A01 T03650119  RH  023%=      5-min Rain = 0
KTA1 032349Z 11009KT 37/12 A2996 RMK A01 T03660116  RH  022%=      5-min Rain = 0
KTA1 032350Z 11011KT 37/12 A2996 RMK A01 T03680116  RH  022%=      5-min Rain = 0
KTA1 032351Z 11012G17KT 37/12 A2996 RMK A01 T03680115  RH  022%=      5-min Rain = 0
KTA1 032352Z 12013KT 37/12 A2996 RMK A01 T03660116  RH  022%=      5-min Rain = 0
KTA1 032353Z 11013KT 37/12 A2996 RMK A01 T03670116  RH  022%=      5-min Rain = 0
KTA1 032354Z 10009KT 37/12 A2996 RMK A01 T03670116  RH  022%=      5-min Rain = 0
KTA1 032355Z 10011KT 37/12 A2996 RMK A01 T03670116  RH  022%=      5-min Rain = 0
KTA1 032356Z 11011KT 37/12 A2996 RMK A01 T03650116  RH  022%=      5-min Rain = 0
KTA1 032357Z 11006KT 36/12 A2996 RMK A01 T03630117  RH  023%=      5-min Rain = 0
KTA1 032358Z 10009KT 36/12 A2996 RMK A01 T03620116  RH  023%=      5-min Rain = 0
KTA1 032359Z 10010G16KT 36/12 A2996 RMK A01 T03630117  RH  023%=      5-min Rain = 0
KTA1 040000Z 12015KT 37/12 A2996 RMK A01 T03650118  RH  023%=      5-min Rain = 0
KTA1 040001Z 15013KT 37/12 A2996 RMK A01 T03660119  RH  023%=      5-min Rain = 0
KTA1 040002Z 13010KT 37/12 A2997 RMK A01 T03660119  RH  023%=      5-min Rain = 0
KTA1 040003Z 11010KT 37/12 A2997 RMK A01 T03660119  RH  023%=      5-min Rain = 0
KTA1 040004Z 11011KT 36/12 A2997 RMK A01 T03640117  RH  023%=      5-min Rain = 0
KTA1 040005Z 12012KT 36/12 A2997 RMK A01 T03630117  RH  023%=      5-min Rain = 0
KTA1 040006Z 12013KT 36/12 A2997 RMK A01 T03630117  RH  023%=      5-min Rain = 0
KTA1 040007Z 11013KT 36/12 A2997 RMK A01 T03620116  RH  023%=      5-min Rain = 0
KTA1 040008Z 11014KT 36/12 A2997 RMK A01 T03610117  RH  023%=      5-min Rain = 0
KTA1 040009Z 12012KT 36/12 A2997 RMK A01 T03600116  RH  023%=      5-min Rain = 0
KTA1 040010Z 11010KT 36/12 A2997 RMK A01 T03600116  RH  023%=      5-min Rain = 0
KTA1 040011Z 12011KT 36/12 A2997 RMK A01 T03600116  RH  023%=      5-min Rain = 0
KTA1 040012Z 12009KT 36/12 A2997 RMK A01 T03590116  RH  023%=      5-min Rain = 0
KTA1 040013Z 11009KT 36/12 A2997 RMK A01 T03590116  RH  023%=      5-min Rain = 0
KTA1 040014Z 12009KT 36/12 A2997 RMK A01 T03590117  RH  023%=      5-min Rain = 0
KTA1 040015Z 11009KT 36/12 A2997 RMK A01 T03600118  RH  023%=      5-min Rain = 0
KTA1 040016Z 12008KT 36/12 A2997 RMK A01 T03600119  RH  023%=      5-min Rain = 0
KTA1 040017Z 11012KT 36/12 A2997 RMK A01 T03600119  RH  023%=      5-min Rain = 0
KTA1 040018Z 12013KT 36/12 A2997 RMK A01 T03610119  RH  023%=      5-min Rain = 0
KTA1 040019Z 12012KT 36/12 A2997 RMK A01 T03610120  RH  023%=      5-min Rain = 0
KTA1 040020Z 13012KT 36/12 A2997 RMK A01 T03620120  RH  023%=      5-min Rain = 0
KTA1 040021Z 13014KT 36/12 A2997 RMK A01 T03620121  RH  023%=      5-min Rain = 0
KTA1 040022Z 13011KT 36/12 A2997 RMK A01 T03620120  RH  023%=      5-min Rain = 0
KTA1 040023Z 13014KT 36/12 A2997 RMK A01 T03620121  RH  023%=      5-min Rain = 0
KTA1 040024Z 14012KT 36/12 A2997 RMK A01 T03620120  RH  023%=      5-min Rain = 0
KTA1 040025Z 14011KT 36/12 A2997 RMK A01 T03620120  RH  023%=      5-min Rain = 0
KTA1 040026Z 14010KT 36/12 A2997 RMK A01 T03620121  RH  024%=      5-min Rain = 0
KTA1 040027Z 14010KT 36/12 A2997 RMK A01 T03620121  RH  023%=      5-min Rain = 0
KTA1 040028Z 15007KT 36/12 A2997 RMK A01 T03620122  RH  024%=      5-min Rain = 0
KTA1 040029Z 14007KT 36/12 A2997 RMK A01 T03620122  RH  024%=      5-min Rain = 0
KTA1 040030Z 14006KT 36/12 A2997 RMK A01 T03620121  RH  024%=      5-min Rain = 0
KTA1 040031Z 12008KT 36/12 A2997 RMK A01 T03610121  RH  024%=      5-min Rain = 0
KTA1 040032Z 13011KT 36/12 A2997 RMK A01 T03610120  RH  023%=      5-min Rain = 0
KTA1 040033Z 12011KT 36/12 A2997 RMK A01 T03610120  RH  023%=      5-min Rain = 0
KTA1 040034Z 13011KT 36/12 A2997 RMK A01 T03610119  RH  023%=      5-min Rain = 0
KTA1 040035Z 13009KT 36/12 A2997 RMK A01 T03600119  RH  023%=      5-min Rain = 0
KTA1 040036Z 13008KT 36/12 A2997 RMK A01 T03590119  RH  024%=      5-min Rain = 0
KTA1 040037Z 12008KT 36/12 A2997 RMK A01 T03590119  RH  024%=      5-min Rain = 0
KTA1 040038Z 13008KT 36/12 A2997 RMK A01 T03590119  RH  024%=      5-min Rain = 0
KTA1 040039Z 14008KT 36/12 A2997 RMK A01 T03580119  RH  024%=      5-min Rain = 0
KTA1 040040Z 12007KT 36/12 A2997 RMK A01 T03590119  RH  024%=      5-min Rain = 0
KTA1 040041Z 12010KT 36/12 A2997 RMK A01 T03600119  RH  023%=      5-min Rain = 0
KTA1 040042Z 12009KT 36/12 A2997 RMK A01 T03590117  RH  023%=      5-min Rain = 0
KTA1 040043Z 13009KT 36/12 A2997 RMK A01 T03580116  RH  023%=      5-min Rain = 0
KTA1 040044Z 12010KT 36/12 A2997 RMK A01 T03580115  RH  023%=      5-min Rain = 0
KTA1 040045Z 12012KT 36/12 A2997 RMK A01 T03580115  RH  023%=      5-min Rain = 0
KTA1 040046Z 11010KT 36/11 A2997 RMK A01 T03590114  RH  023%=      5-min Rain = 0
KTA1 040047Z 12010KT 36/11 A2997 RMK A01 T03590114  RH  023%=      5-min Rain = 0
KTA1 040048Z 13011KT 36/12 A2997 RMK A01 T03580115  RH  023%=      5-min Rain = 0
KTA1 040049Z 14010KT 36/12 A2997 RMK A01 T03580116  RH  023%=      5-min Rain = 0
KTA1 040050Z 12014KT 36/12 A2997 RMK A01 T03580116  RH  023%=      5-min Rain = 0
KTA1 040051Z 12012KT 36/12 A2997 RMK A01 T03580116  RH  023%=      5-min Rain = 0
KTA1 040052Z 12009KT 36/12 A2997 RMK A01 T03570116  RH  023%=      5-min Rain = 0
KTA1 040053Z 12007KT 36/12 A2997 RMK A01 T03560116  RH  023%=      5-min Rain = 0
KTA1 040054Z 12008KT 36/12 A2997 RMK A01 T03560116  RH  023%=      5-min Rain = 0
KTA1 040055Z 13007KT 36/12 A2997 RMK A01 T03560116  RH  023%=      5-min Rain = 0
KTA1 040056Z 11008KT 36/12 A2997 RMK A01 T03560116  RH  023%=      5-min Rain = 0
KTA1 040057Z 11011KT 36/12 A2997 RMK A01 T03560115  RH  023%=      5-min Rain = 0
KTA1 040058Z 11012KT 36/11 A2997 RMK A01 T03560114  RH  023%=      5-min Rain = 0
KTA1 040059Z 11011KT 36/11 A2997 RMK A01 T03560113  RH  023%=      5-min Rain = 0
KTA1 040100Z 12012KT 36/11 A2997 RMK A01 T03550113  RH  023%=      5-min Rain = 0
KTA1 040101Z 11012KT 36/11 A2997 RMK A01 T03550113  RH  023%=      5-min Rain = 0
KTA1 040102Z 11011KT 36/11 A2997 RMK A01 T03550112  RH  023%=      5-min Rain = 0
KTA1 040103Z 10009KT 35/11 A2997 RMK A01 T03540113  RH  023%=      5-min Rain = 0
KTA1 040104Z 10008KT 35/11 A2997 RMK A01 T03540113  RH  023%=      5-min Rain = 0
KTA1 040105Z 10008G14KT 35/11 A2997 RMK A01 T03540113  RH  023%=      5-min Rain = 0
KTA1 040106Z 13011KT 36/11 A2997 RMK A01 T03550113  RH  023%=      5-min Rain = 0
KTA1 040107Z 12010KT 36/11 A2997 RMK A01 T03550113  RH  023%=      5-min Rain = 0
KTA1 040108Z 13011KT 36/12 A2998 RMK A01 T03550115  RH  023%=      5-min Rain = 0
KTA1 040109Z 13009KT 36/11 A2998 RMK A01 T03550114  RH  023%=      5-min Rain = 0
KTA1 040110Z 12010KT 35/11 A2998 RMK A01 T03540114  RH  023%=      5-min Rain = 0
KTA1 040111Z 12009KT 35/11 A2998 RMK A01 T03540114  RH  023%=      5-min Rain = 0
KTA1 040112Z 12010KT 35/11 A2998 RMK A01 T03530114  RH  023%=      5-min Rain = 0
KTA1 040113Z 13011KT 35/11 A2998 RMK A01 T03530114  RH  024%=      5-min Rain = 0
KTA1 040114Z 12012KT 35/11 A2998 RMK A01 T03520114  RH  024%=      5-min Rain = 0
KTA1 040115Z 12011KT 35/11 A2998 RMK A01 T03520113  RH  024%=      5-min Rain = 0
KTA1 040116Z 12011KT 35/11 A2998 RMK A01 T03520113  RH  024%=      5-min Rain = 0
KTA1 040117Z 12011KT 35/11 A2998 RMK A01 T03520113  RH  024%=      5-min Rain = 0
KTA1 040118Z 12009KT 35/11 A2998 RMK A01 T03510113  RH  024%=      5-min Rain = 0
KTA1 040119Z 13010KT 35/11 A2998 RMK A01 T03510112  RH  024%=      5-min Rain = 0
KTA1 040120Z 12011KT 35/11 A2998 RMK A01 T03500113  RH  024%=      5-min Rain = 0
KTA1 040121Z 12011KT 35/11 A2998 RMK A01 T03500113  RH  024%=      5-min Rain = 0
KTA1 040122Z 11010KT 35/11 A2998 RMK A01 T03500113  RH  024%=      5-min Rain = 0
KTA1 040123Z 11009KT 35/11 A2998 RMK A01 T03490113  RH  024%=      5-min Rain = 0
KTA1 040124Z 12009KT 35/11 A2998 RMK A01 T03490113  RH  024%=      5-min Rain = 0
KTA1 040125Z 13009KT 35/11 A2998 RMK A01 T03490114  RH  024%=      5-min Rain = 0
KTA1 040126Z 12008KT 35/12 A2998 RMK A01 T03490115  RH  024%=      5-min Rain = 0
KTA1 040127Z 13009KT 35/12 A2998 RMK A01 T03480115  RH  024%=      5-min Rain = 0
KTA1 040128Z 13010KT 35/12 A2998 RMK A01 T03480115  RH  024%=      5-min Rain = 0
KTA1 040129Z 12009KT 35/11 A2998 RMK A01 T03480114  RH  024%=      5-min Rain = 0
KTA1 040130Z 12011KT 35/11 A2998 RMK A01 T03470114  RH  024%=      5-min Rain = 0
KTA1 040131Z 12011KT 35/11 A2998 RMK A01 T03470113  RH  024%=      5-min Rain = 0
KTA1 040132Z 12009KT 35/11 A2998 RMK A01 T03470113  RH  024%=      5-min Rain = 0
KTA1 040133Z 12009KT 35/11 A2998 RMK A01 T03460112  RH  024%=      5-min Rain = 0
KTA1 040134Z 13007KT 35/11 A2998 RMK A01 T03460113  RH  024%=      5-min Rain = 0
KTA1 040135Z 13008KT 35/11 A2998 RMK A01 T03460114  RH  024%=      5-min Rain = 0
KTA1 040136Z 13009KT 35/11 A2998 RMK A01 T03450113  RH  025%=      5-min Rain = 0
KTA1 040137Z 12008KT 35/11 A2998 RMK A01 T03450114  RH  025%=      5-min Rain = 0
KTA1 040138Z 12008KT 34/11 A2998 RMK A01 T03440113  RH  025%=      5-min Rain = 0
KTA1 040139Z 12008KT 34/11 A2998 RMK A01 T03430113  RH  025%=      5-min Rain = 0
KTA1 040140Z 13011KT 34/11 A2998 RMK A01 T03430113  RH  025%=      5-min Rain = 0
KTA1 040141Z 12009KT 34/11 A2998 RMK A01 T03430113  RH  025%=      5-min Rain = 0
KTA1 040142Z 13009KT 34/11 A2998 RMK A01 T03420113  RH  025%=      5-min Rain = 0
KTA1 040143Z 12010KT 34/12 A2998 RMK A01 T03420115  RH  025%=      5-min Rain = 0
KTA1 040144Z 12012KT 34/12 A2998 RMK A01 T03410117  RH  026%=      5-min Rain = 0
KTA1 040145Z 11012KT 34/12 A2998 RMK A01 T03410119  RH  026%=      5-min Rain = 0
KTA1 040146Z 11013KT 34/12 A2998 RMK A01 T03410120  RH  026%=      5-min Rain = 0
KTA1 040147Z 11015KT 34/12 A2999 RMK A01 T03410123  RH  027%=      5-min Rain = 0
KTA1 040148Z 11014KT 34/12 A2999 RMK A01 T03410124  RH  027%=      5-min Rain = 0
KTA1 040149Z 11014KT 34/13 A2999 RMK A01 T03410125  RH  027%=      5-min Rain = 0
KTA1 040150Z 11012KT 34/13 A2999 RMK A01 T03400125  RH  027%=      5-min Rain = 0
KTA1 040151Z 12012KT 34/13 A2999 RMK A01 T03400125  RH  027%=      5-min Rain = 0
KTA1 040152Z 12012KT 34/13 A2999 RMK A01 T03390126  RH  027%=      5-min Rain = 0
KTA1 040153Z 12012KT 34/13 A2999 RMK A01 T03390127  RH  028%=      5-min Rain = 0
KTA1 040154Z 12012KT 34/13 A2999 RMK A01 T03380127  RH  028%=      5-min Rain = 0
KTA1 040155Z 12012KT 34/13 A2999 RMK A01 T03380128  RH  028%=      5-min Rain = 0
KTA1 040156Z 11013KT 34/13 A2999 RMK A01 T03370128  RH  028%=      5-min Rain = 0
KTA1 040157Z 11013KT 34/13 A2999 RMK A01 T03370127  RH  028%=      5-min Rain = 0
KTA1 040158Z 11012KT 34/13 A2999 RMK A01 T03370127  RH  028%=      5-min Rain = 0
KTA1 040159Z 11012KT 34/13 A2999 RMK A01 T03370127  RH  028%=      5-min Rain = 0
KTA1 040200Z 11011KT 34/13 A2999 RMK A01 T03370127  RH  028%=      5-min Rain = 0
KTA1 040201Z 11013KT 34/13 A2999 RMK A01 T03360127  RH  028%=      5-min Rain = 0
KTA1 040202Z 11012KT 34/13 A2999 RMK A01 T03360127  RH  028%=      5-min Rain = 0
KTA1 040203Z 11012KT 34/13 A2999 RMK A01 T03360127  RH  028%=      5-min Rain = 0
KTA1 040204Z 12011KT 34/13 A2999 RMK A01 T03350127  RH  028%=      5-min Rain = 0
KTA1 040205Z 12010KT 34/13 A2999 RMK A01 T03350127  RH  028%=      5-min Rain = 0
KTA1 040206Z 11011KT 34/13 A2999 RMK A01 T03350127  RH  028%=      5-min Rain = 0
KTA1 040207Z 11010KT 34/13 A2999 RMK A01 T03350127  RH  028%=      5-min Rain = 0
KTA1 040208Z 12012KT 33/13 A2999 RMK A01 T03340127  RH  028%=      5-min Rain = 0
KTA1 040209Z 11013KT 33/13 A2999 RMK A01 T03340127  RH  029%=      5-min Rain = 0
KTA1 040210Z 11013KT 33/13 A2999 RMK A01 T03340127  RH  029%=      5-min Rain = 0
KTA1 040211Z 11014KT 33/13 A2999 RMK A01 T03340127  RH  029%=      5-min Rain = 0
KTA1 040212Z 11013KT 33/13 A30 RMK A01 T03340127  RH  029%=      5-min Rain = 0
KTA1 040213Z 12013KT 33/13 A30 RMK A01 T03340127  RH  029%=      5-min Rain = 0
KTA1 040214Z 12012KT 33/13 A30 RMK A01 T03330127  RH  029%=      5-min Rain = 0
KTA1 040215Z 11012KT 33/13 A30 RMK A01 T03330127  RH  029%=      5-min Rain = 0
KTA1 040216Z 11010KT 33/13 A30 RMK A01 T03330127  RH  029%=      5-min Rain = 0
KTA1 040217Z 12011KT 33/13 A30 RMK A01 T03320127  RH  029%=      5-min Rain = 0
KTA1 040218Z 12011KT 33/13 A30 RMK A01 T03320127  RH  029%=      5-min Rain = 0
KTA1 040219Z 12010KT 33/13 A30 RMK A01 T03310127  RH  029%=      5-min Rain = 0
KTA1 040220Z 12010KT 33/13 A30 RMK A01 T03310127  RH  029%=      5-min Rain = 0
KTA1 040221Z 12012KT 33/13 A30 RMK A01 T03300127  RH  029%=      5-min Rain = 0
KTA1 040222Z 12012KT 33/13 A30 RMK A01 T03300128  RH  029%=      5-min Rain = 0
KTA1 040223Z 12012KT 33/13 A30 RMK A01 T03300127  RH  029%=      5-min Rain = 0
KTA1 040224Z 12011KT 33/13 A30 RMK A01 T03300128  RH  029%=      5-min Rain = 0
KTA1 040225Z 12011KT 33/13 A30 RMK A01 T03290128  RH  029%=      5-min Rain = 0
KTA1 040226Z 12012KT 33/13 A30 RMK A01 T03290128  RH  029%=      5-min Rain = 0
KTA1 040227Z 12010KT 33/13 A30 RMK A01 T03290128  RH  030%=      5-min Rain = 0
KTA1 040228Z 12011KT 33/13 A30 RMK A01 T03290128  RH  030%=      5-min Rain = 0
KTA1 040229Z 12010KT 33/13 A30 RMK A01 T03280128  RH  030%=      5-min Rain = 0
KTA1 040230Z 12011KT 33/13 A30 RMK A01 T03280128  RH  030%=      5-min Rain = 0
KTA1 040231Z 12011KT 33/13 A30 RMK A01 T03280128  RH  030%=      5-min Rain = 0
KTA1 040232Z 12010KT 33/13 A30 RMK A01 T03280128  RH  030%=      5-min Rain = 0
KTA1 040233Z 12011KT 33/13 A30 RMK A01 T03270128  RH  030%=      5-min Rain = 0
KTA1 040234Z 12011KT 33/13 A30 RMK A01 T03270128  RH  030%=      5-min Rain = 0
KTA1 040235Z 12011KT 33/13 A30 RMK A01 T03270128  RH  030%=      5-min Rain = 0
KTA1 040236Z 12010KT 33/13 A30 RMK A01 T03270128  RH  030%=      5-min Rain = 0
KTA1 040237Z 12011KT 33/13 A30 RMK A01 T03260128  RH  030%=      5-min Rain = 0
KTA1 040238Z 12010KT 33/13 A30 RMK A01 T03260128  RH  030%=      5-min Rain = 0
KTA1 040239Z 12010KT 33/13 A30 RMK A01 T03250127  RH  030%=      5-min Rain = 0
KTA1 040240Z 12010KT 33/13 A30 RMK A01 T03250128  RH  030%=      5-min Rain = 0
KTA1 040241Z 12010KT 32/13 A30 RMK A01 T03240127  RH  030%=      5-min Rain = 0
KTA1 040242Z 12009KT 32/13 A30 RMK A01 T03240128  RH  030%=      5-min Rain = 0
KTA1 040243Z 12010KT 32/13 A30 RMK A01 T03240128  RH  030%=      5-min Rain = 0
KTA1 040244Z 12010KT 32/13 A30 RMK A01 T03240128  RH  030%=      5-min Rain = 0
KTA1 040245Z 12010KT 32/13 A30 RMK A01 T03230128  RH  030%=      5-min Rain = 0
KTA1 040246Z 12010KT 32/13 A30 RMK A01 T03230128  RH  030%=      5-min Rain = 0
KTA1 040247Z 12011KT 32/13 A30 RMK A01 T03230128  RH  031%=      5-min Rain = 0
KTA1 040248Z 12010KT 32/13 A30 RMK A01 T03230128  RH  031%=      5-min Rain = 0
KTA1 040249Z 12010KT 32/13 A3001 RMK A01 T03220128  RH  031%=      5-min Rain = 0
KTA1 040250Z 12010KT 32/13 A3001 RMK A01 T03220127  RH  031%=      5-min Rain = 0
KTA1 040251Z 12011KT 32/13 A3001 RMK A01 T03220127  RH  031%=      5-min Rain = 0
KTA1 040252Z 12010KT 32/13 A3001 RMK A01 T03220127  RH  031%=      5-min Rain = 0
KTA1 040253Z 12010KT 32/13 A3001 RMK A01 T03220127  RH  031%=      5-min Rain = 0
KTA1 040254Z 12010KT 32/13 A3001 RMK A01 T03220127  RH  031%=      5-min Rain = 0
KTA1 040255Z 12010KT 32/13 A3001 RMK A01 T03210127  RH  031%=      5-min Rain = 0
KTA1 040256Z 12010KT 32/13 A3001 RMK A01 T03210127  RH  031%=      5-min Rain = 0
KTA1 040257Z 12010KT 32/13 A3001 RMK A01 T03200127  RH  031%=      5-min Rain = 0
KTA1 040258Z 12011KT 32/13 A3001 RMK A01 T03200127  RH  031%=      5-min Rain = 0
KTA1 040259Z 12011KT 32/13 A3001 RMK A01 T03190127  RH  031%=      5-min Rain = 0
KTA1 040300Z 12010KT 32/13 A3001 RMK A01 T03190127  RH  031%=      5-min Rain = 0
KTA1 040301Z 12010KT 32/13 A3001 RMK A01 T03190127  RH  031%=      5-min Rain = 0
KTA1 040302Z 12010KT 32/13 A3001 RMK A01 T03190127  RH  031%=      5-min Rain = 0
KTA1 040303Z 12010KT 32/13 A3001 RMK A01 T03190127  RH  031%=      5-min Rain = 0
KTA1 040304Z 12009KT 32/13 A3001 RMK A01 T03180127  RH  031%=      5-min Rain = 0
KTA1 040305Z 12010KT 32/13 A3001 RMK A01 T03180127  RH  031%=      5-min Rain = 0
KTA1 040306Z 12010KT 32/13 A3002 RMK A01 T03180127  RH  031%=      5-min Rain = 0
KTA1 040307Z 12009KT 32/13 A3002 RMK A01 T03170127  RH  031%=      5-min Rain = 0
KTA1 040308Z 12010KT 32/13 A3002 RMK A01 T03170127  RH  031%=      5-min Rain = 0
KTA1 040309Z 12009KT 32/13 A3002 RMK A01 T03160127  RH  032%=      5-min Rain = 0
KTA1 040310Z 12009KT 32/13 A3002 RMK A01 T03160127  RH  032%=      5-min Rain = 0
KTA1 040311Z 12009KT 32/13 A3002 RMK A01 T03150127  RH  032%=      5-min Rain = 0
KTA1 040312Z 12010KT 32/13 A3002 RMK A01 T03150127  RH  032%=      5-min Rain = 0
KTA1 040313Z 12009KT 32/13 A3002 RMK A01 T03150127  RH  032%=      5-min Rain = 0
KTA1 040314Z 12010KT 32/13 A3002 RMK A01 T03150127  RH  032%=      5-min Rain = 0
KTA1 040315Z 12010KT 32/13 A3002 RMK A01 T03150127  RH  032%=      5-min Rain = 0
KTA1 040316Z 12009KT 32/13 A3002 RMK A01 T03150127  RH  032%=      5-min Rain = 0
KTA1 040317Z 12010KT 32/13 A3002 RMK A01 T03150126  RH  032%=      5-min Rain = 0
KTA1 040318Z 12010KT 31/13 A3002 RMK A01 T03140126  RH  032%=      5-min Rain = 0
KTA1 040319Z 12010KT 31/13 A3002 RMK A01 T03140126  RH  032%=      5-min Rain = 0
KTA1 040320Z 12009KT 31/13 A3002 RMK A01 T03140126  RH  032%=      5-min Rain = 0
KTA1 040321Z 12010KT 31/13 A3002 RMK A01 T03140126  RH  032%=      5-min Rain = 0
KTA1 040322Z 12010KT 31/13 A3002 RMK A01 T03140125  RH  032%=      5-min Rain = 0
KTA1 040323Z 12009KT 31/13 A3002 RMK A01 T03140125  RH  032%=      5-min Rain = 0
KTA1 040324Z 12010KT 31/13 A3002 RMK A01 T03130125  RH  032%=      5-min Rain = 0
KTA1 040325Z 12010KT 31/13 A3002 RMK A01 T03130125  RH  032%=      5-min Rain = 0
KTA1 040326Z 12009KT 31/12 A3002 RMK A01 T03130124  RH  032%=      5-min Rain = 0
KTA1 040327Z 12009KT 31/12 A3003 RMK A01 T03130124  RH  032%=      5-min Rain = 0
KTA1 040328Z 12010KT 31/12 A3003 RMK A01 T03120124  RH  032%=      5-min Rain = 0
KTA1 040329Z 12010KT 31/12 A3003 RMK A01 T03120124  RH  032%=      5-min Rain = 0
KTA1 040330Z 12010KT 31/12 A3003 RMK A01 T03120123  RH  031%=      5-min Rain = 0
KTA1 040331Z 12010KT 31/12 A3003 RMK A01 T03120123  RH  031%=      5-min Rain = 0
KTA1 040332Z 12011KT 31/12 A3003 RMK A01 T03120122  RH  031%=      5-min Rain = 0
KTA1 040333Z 12010KT 31/12 A3003 RMK A01 T03120122  RH  031%=      5-min Rain = 0
KTA1 040334Z 12011KT 31/12 A3003 RMK A01 T03120122  RH  031%=      5-min Rain = 0
KTA1 040335Z 12011KT 31/12 A3003 RMK A01 T03120121  RH  031%=      5-min Rain = 0
KTA1 040336Z 12011KT 31/12 A3003 RMK A01 T03120120  RH  031%=      5-min Rain = 0
KTA1 040337Z 12011KT 31/12 A3003 RMK A01 T03120120  RH  031%=      5-min Rain = 0
KTA1 040338Z 12011KT 31/12 A3003 RMK A01 T03120120  RH  031%=      5-min Rain = 0
KTA1 040339Z 12011KT 31/12 A3003 RMK A01 T03120119  RH  031%=      5-min Rain = 0
KTA1 040340Z 12011KT 31/12 A3003 RMK A01 T03120119  RH  031%=      5-min Rain = 0
KTA1 040341Z 12011KT 31/12 A3003 RMK A01 T03120119  RH  030%=      5-min Rain = 0
KTA1 040342Z 12010KT 31/12 A3003 RMK A01 T03120118  RH  030%=      5-min Rain = 0
KTA1 040343Z 12009KT 31/12 A3003 RMK A01 T03120118  RH  030%=      5-min Rain = 0
KTA1 040344Z 12010KT 31/12 A3003 RMK A01 T03120118  RH  030%=      5-min Rain = 0
KTA1 040345Z 12010KT 31/12 A3004 RMK A01 T03120118  RH  030%=      5-min Rain = 0
KTA1 040346Z 11009KT 31/12 A3004 RMK A01 T03110117  RH  030%=      5-min Rain = 0
KTA1 040347Z 12010KT 31/12 A3004 RMK A01 T03110117  RH  030%=      5-min Rain = 0
KTA1 040348Z 12009KT 31/12 A3004 RMK A01 T03110116  RH  030%=      5-min Rain = 0
KTA1 040349Z 12010KT 31/12 A3004 RMK A01 T03100116  RH  030%=      5-min Rain = 0
KTA1 040350Z 12010KT 31/12 A3004 RMK A01 T03100116  RH  030%=      5-min Rain = 0
KTA1 040351Z 12010KT 31/12 A3004 RMK A01 T03100115  RH  030%=      5-min Rain = 0
KTA1 040352Z 12009KT 31/12 A3004 RMK A01 T03100115  RH  030%=      5-min Rain = 0
KTA1 040353Z 12010KT 31/12 A3004 RMK A01 T03090115  RH  030%=      5-min Rain = 0
KTA1 040354Z 12010KT 31/12 A3004 RMK A01 T03080115  RH  030%=      5-min Rain = 0
KTA1 040355Z 12010KT 31/12 A3004 RMK A01 T03080115  RH  030%=      5-min Rain = 0
KTA1 040356Z 12010KT 31/11 A3004 RMK A01 T03080114  RH  030%=      5-min Rain = 0
KTA1 040357Z 12010KT 31/11 A3004 RMK A01 T03080114  RH  030%=      5-min Rain = 0
KTA1 040358Z 12010KT 31/11 A3004 RMK A01 T03080113  RH  030%=      5-min Rain = 0
KTA1 040359Z 12010KT 31/11 A3004 RMK A01 T03070113  RH  030%=      5-min Rain = 0
KTA1 040400Z 12010KT 31/11 A3004 RMK A01 T03080113  RH  030%=      5-min Rain = 0
KTA1 040401Z 12010KT 31/11 A3004 RMK A01 T03070113  RH  030%=      5-min Rain = 0
KTA1 040402Z 12010KT 31/11 A3004 RMK A01 T03070113  RH  030%=      5-min Rain = 0
KTA1 040403Z 11011KT 31/11 A3004 RMK A01 T03070112  RH  030%=      5-min Rain = 0
KTA1 040404Z 11010KT 31/11 A3004 RMK A01 T03070113  RH  030%=      5-min Rain = 0
KTA1 040405Z 11010KT 31/11 A3004 RMK A01 T03060112  RH  030%=      5-min Rain = 0
KTA1 040406Z 11010KT 31/11 A3004 RMK A01 T03050111  RH  030%=      5-min Rain = 0
KTA1 040407Z 11010KT 31/11 A3004 RMK A01 T03050111  RH  030%=      5-min Rain = 0
KTA1 040408Z 11011KT 31/11 A3004 RMK A01 T03050111  RH  030%=      5-min Rain = 0
KTA1 040409Z 11011KT 30/11 A3004 RMK A01 T03040111  RH  030%=      5-min Rain = 0
KTA1 040410Z 11010KT 30/11 A3005 RMK A01 T03040110  RH  030%=      5-min Rain = 0
KTA1 040411Z 11009KT 30/11 A3005 RMK A01 T03040110  RH  030%=      5-min Rain = 0
KTA1 040412Z 11009KT 30/11 A3005 RMK A01 T03040110  RH  030%=      5-min Rain = 0
KTA1 040413Z 11009KT 30/11 A3005 RMK A01 T03040110  RH  030%=      5-min Rain = 0
KTA1 040414Z 11009KT 30/11 A3005 RMK A01 T03030110  RH  030%=      5-min Rain = 0
KTA1 040415Z 11009KT 30/11 A3005 RMK A01 T03030110  RH  030%=      5-min Rain = 0
KTA1 040416Z 11010KT 30/11 A3005 RMK A01 T03030110  RH  030%=      5-min Rain = 0
KTA1 040417Z 11009KT 30/11 A3005 RMK A01 T03030110  RH  030%=      5-min Rain = 0
KTA1 040418Z 11009KT 30/11 A3005 RMK A01 T03020110  RH  030%=      5-min Rain = 0
KTA1 040419Z 11008KT 30/11 A3005 RMK A01 T03020110  RH  031%=      5-min Rain = 0
KTA1 040420Z 11008KT 30/11 A3005 RMK A01 T03010111  RH  031%=      5-min Rain = 0
KTA1 040421Z 11009KT 30/11 A3005 RMK A01 T03010111  RH  031%=      5-min Rain = 0
KTA1 040422Z 11009KT 30/11 A3005 RMK A01 T03000111  RH  031%=      5-min Rain = 0
KTA1 040423Z 11009KT 30/11 A3005 RMK A01 T03000111  RH  031%=      5-min Rain = 0
KTA1 040424Z 11009KT 30/11 A3005 RMK A01 T02990110  RH  031%=      5-min Rain = 0
KTA1 040425Z 11008KT 30/11 A3005 RMK A01 T02990110  RH  031%=      5-min Rain = 0
KTA1 040426Z 11008KT 30/11 A3005 RMK A01 T02980110  RH  031%=      5-min Rain = 0
KTA1 040427Z 11009KT 30/11 A3005 RMK A01 T02990110  RH  031%=      5-min Rain = 0
KTA1 040428Z 11009KT 30/11 A3005 RMK A01 T02980109  RH  031%=      5-min Rain = 0
KTA1 040429Z 11009KT 30/11 A3005 RMK A01 T02980108  RH  031%=      5-min Rain = 0
KTA1 040430Z 11009KT 30/11 A3005 RMK A01 T02980108  RH  031%=      5-min Rain = 0
KTA1 040431Z 11009KT 30/11 A3005 RMK A01 T02980108  RH  031%=      5-min Rain = 0
KTA1 040432Z 11009KT 30/11 A3005 RMK A01 T02980108  RH  031%=      5-min Rain = 0
KTA1 040433Z 12009KT 30/11 A3005 RMK A01 T02980108  RH  031%=      5-min Rain = 0
KTA1 040434Z 12009KT 30/11 A3005 RMK A01 T02980108  RH  031%=      5-min Rain = 0
KTA1 040435Z 12009KT 30/11 A3005 RMK A01 T02980108  RH  031%=      5-min Rain = 0
KTA1 040436Z 11008KT 30/11 A3005 RMK A01 T02980107  RH  031%=      5-min Rain = 0
KTA1 040437Z 12009KT 30/11 A3005 RMK A01 T02980107  RH  031%=      5-min Rain = 0
KTA1 040438Z 11009KT 30/11 A3005 RMK A01 T02980107  RH  031%=      5-min Rain = 0
KTA1 040439Z 12009KT 30/11 A3005 RMK A01 T02980107  RH  031%=      5-min Rain = 0
KTA1 040440Z 12009KT 30/11 A3005 RMK A01 T02980107  RH  031%=      5-min Rain = 0
KTA1 040441Z 11008KT 30/11 A3005 RMK A01 T02970107  RH  031%=      5-min Rain = 0
KTA1 040442Z 11009KT 30/11 A3005 RMK A01 T02970106  RH  031%=      5-min Rain = 0
KTA1 040443Z 11009KT 30/11 A3005 RMK A01 T02960106  RH  031%=      5-min Rain = 0
KTA1 040444Z 11008KT 30/11 A3005 RMK A01 T02950106  RH  031%=      5-min Rain = 0
KTA1 040445Z 11008KT 30/11 A3005 RMK A01 T02950106  RH  031%=      5-min Rain = 0
KTA1 040446Z 11008KT 29/11 A3005 RMK A01 T02940106  RH  031%=      5-min Rain = 0
KTA1 040447Z 11008KT 29/11 A3005 RMK A01 T02930106  RH  031%=      5-min Rain = 0
KTA1 040448Z 11009KT 29/11 A3005 RMK A01 T02930107  RH  031%=      5-min Rain = 0
KTA1 040449Z 11008KT 29/11 A3005 RMK A01 T02930107  RH  032%=      5-min Rain = 0
KTA1 040450Z 11008KT 29/11 A3005 RMK A01 T02920107  RH  032%=      5-min Rain = 0
KTA1 040451Z 11008KT 29/11 A3005 RMK A01 T02920107  RH  032%=      5-min Rain = 0
KTA1 040452Z 11008KT 29/11 A3005 RMK A01 T02910107  RH  032%=      5-min Rain = 0
KTA1 040453Z 11008KT 29/11 A3005 RMK A01 T02910107  RH  032%=      5-min Rain = 0
KTA1 040454Z 11008KT 29/11 A3005 RMK A01 T02900107  RH  032%=      5-min Rain = 0
KTA1 040455Z 11008KT 29/11 A3005 RMK A01 T02900107  RH  032%=      5-min Rain = 0
KTA1 040456Z 11008KT 29/11 A3005 RMK A01 T02890107  RH  032%=      5-min Rain = 0
KTA1 040457Z 11007KT 29/11 A3005 RMK A01 T02890107  RH  032%=      5-min Rain = 0
KTA1 040458Z 11007KT 29/11 A3005 RMK A01 T02890108  RH  032%=      5-min Rain = 0
KTA1 040459Z 11008KT 29/11 A3005 RMK A01 T02890107  RH  032%=      5-min Rain = 0

Page generated in 0.0719 seconds.